<?xml version="1.0" encoding="UTF-8" standalone="no" ?><gpx xmlns="http://www.topografix.com/GPX/1/1" xmlns:gpxx="http://www.garmin.com/xmlschemas/GpxExtensions/v3" xmlns:wptx1="http://www.garmin.com/xmlschemas/WaypointExtension/v1" xmlns:gpxtpx="http://www.garmin.com/xmlschemas/TrackPointExtension/v1" creator="Dakota 20" version="1.1" xmlns:xsi="http://www.w3.org/2001/XMLSchema-instance" xsi:schemaLocation="http://www.topografix.com/GPX/1/1 http://www.topografix.com/GPX/1/1/gpx.xsd http://www.garmin.com/xmlschemas/GpxExtensions/v3 http://www8.garmin.com/xmlschemas/GpxExtensionsv3.xsd http://www.garmin.com/xmlschemas/WaypointExtension/v1 http://www8.garmin.com/xmlschemas/WaypointExtensionv1.xsd http://www.garmin.com/xmlschemas/TrackPointExtension/v1 http://www.garmin.com/xmlschemas/TrackPointExtensionv1.xsd"><metadata><link href="http://www.garmin.com"><text>Garmin International</text></link><time>2012-05-06T11:21:29Z</time></metadata><trk><name>17 PEDRERES   8:25 PM</name><extensions><gpxx:TrackExtension><gpxx:DisplayColor>Red</gpxx:DisplayColor></gpxx:TrackExtension></extensions><trkseg><trkpt lat="38.6978514399" lon="-0.4697475024"><ele>551.93</ele><time>2012-05-01T06:44:46Z</time></trkpt><trkpt lat="38.6978761666" lon="-0.4697285593"><ele>549.05</ele><time>2012-05-01T06:44:47Z</time></trkpt><trkpt lat="38.6979818624" lon="-0.4696457461"><ele>545.69</ele><time>2012-05-01T06:45:02Z</time></trkpt><trkpt lat="38.6979127955" lon="-0.4696853086"><ele>550.97</ele><time>2012-05-01T06:45:23Z</time></trkpt><trkpt lat="38.6978464946" lon="-0.4697687086"><ele>553.86</ele><time>2012-05-01T06:45:43Z</time></trkpt><trkpt lat="38.6979125440" lon="-0.4698561318"><ele>566.35</ele><time>2012-05-01T06:46:05Z</time></trkpt><trkpt lat="38.6978778429" lon="-0.4697504360"><ele>564.43</ele><time>2012-05-01T06:46:25Z</time></trkpt><trkpt lat="38.6978748254" lon="-0.4697532859"><ele>564.91</ele><time>2012-05-01T06:46:45Z</time></trkpt><trkpt lat="38.6978690419" lon="-0.4697552137"><ele>560.59</ele><time>2012-05-01T06:47:20Z</time></trkpt><trkpt lat="38.6978690419" lon="-0.4697552137"><ele>560.59</ele><time>2012-05-01T06:47:50Z</time></trkpt><trkpt lat="38.6978641804" lon="-0.4697570577"><ele>559.14</ele><time>2012-05-01T06:48:19Z</time></trkpt><trkpt lat="38.6978623364" lon="-0.4697589856"><ele>558.66</ele><time>2012-05-01T06:48:54Z</time></trkpt><trkpt lat="38.6978590675" lon="-0.4697563034"><ele>557.70</ele><time>2012-05-01T06:49:27Z</time></trkpt><trkpt lat="38.6978563853" lon="-0.4697533697"><ele>556.74</ele><time>2012-05-01T06:49:56Z</time></trkpt><trkpt lat="38.6978563853" lon="-0.4697533697"><ele>556.74</ele><time>2012-05-01T06:50:30Z</time></trkpt><trkpt lat="38.6978616659" lon="-0.4697509389"><ele>556.26</ele><time>2012-05-01T06:51:01Z</time></trkpt><trkpt lat="38.6978756636" lon="-0.4697459936"><ele>555.78</ele><time>2012-05-01T06:51:30Z</time></trkpt><trkpt lat="38.6978799384" lon="-0.4697427247"><ele>554.34</ele><time>2012-05-01T06:52:05Z</time></trkpt><trkpt lat="38.6978721432" lon="-0.4697459936"><ele>554.34</ele><time>2012-05-01T06:52:34Z</time></trkpt><trkpt lat="38.6978721432" lon="-0.4697459936"><ele>554.34</ele><time>2012-05-01T06:53:00Z</time></trkpt><trkpt lat="38.6978572235" lon="-0.4697948601"><ele>553.38</ele><time>2012-05-01T06:53:23Z</time></trkpt><trkpt lat="38.6978182476" lon="-0.4698635917"><ele>549.05</ele><time>2012-05-01T06:53:45Z</time></trkpt><trkpt lat="38.6978182476" lon="-0.4698635917"><ele>549.05</ele><time>2012-05-01T06:54:09Z</time></trkpt><trkpt lat="38.6978424713" lon="-0.4698293936"><ele>549.05</ele><time>2012-05-01T06:54:22Z</time></trkpt><trkpt lat="38.6977705546" lon="-0.4698360153"><ele>545.69</ele><time>2012-05-01T06:54:41Z</time></trkpt><trkpt lat="38.6977705546" lon="-0.4698360153"><ele>545.69</ele><time>2012-05-01T06:55:10Z</time></trkpt><trkpt lat="38.6977878213" lon="-0.4698280524"><ele>545.69</ele><time>2012-05-01T06:55:38Z</time></trkpt><trkpt lat="38.6977911741" lon="-0.4698213469"><ele>545.69</ele><time>2012-05-01T06:56:02Z</time></trkpt><trkpt lat="38.6977979634" lon="-0.4698302317"><ele>546.17</ele><time>2012-05-01T06:56:23Z</time></trkpt><trkpt lat="38.6978087761" lon="-0.4698112048"><ele>545.69</ele><time>2012-05-01T06:56:46Z</time></trkpt><trkpt lat="38.6977993883" lon="-0.4698085226"><ele>545.69</ele><time>2012-05-01T06:57:10Z</time></trkpt><trkpt lat="38.6978144757" lon="-0.4697836284"><ele>545.69</ele><time>2012-05-01T06:57:34Z</time></trkpt><trkpt lat="38.6978121288" lon="-0.4697799403"><ele>545.69</ele><time>2012-05-01T06:57:58Z</time></trkpt><trkpt lat="38.6977464985" lon="-0.4697309900"><ele>544.24</ele><time>2012-05-01T06:58:25Z</time></trkpt><trkpt lat="38.6977492645" lon="-0.4697278049"><ele>543.76</ele><time>2012-05-01T06:58:49Z</time></trkpt><trkpt lat="38.6977536231" lon="-0.4697279725"><ele>544.24</ele><time>2012-05-01T06:59:14Z</time></trkpt><trkpt lat="38.6977536231" lon="-0.4697279725"><ele>544.24</ele><time>2012-05-01T06:59:40Z</time></trkpt><trkpt lat="38.6977563892" lon="-0.4697273020"><ele>544.24</ele><time>2012-05-01T07:00:09Z</time></trkpt><trkpt lat="38.6977730691" lon="-0.4697136395"><ele>544.24</ele><time>2012-05-01T07:00:43Z</time></trkpt><trkpt lat="38.6977852229" lon="-0.4697093647"><ele>544.72</ele><time>2012-05-01T07:01:21Z</time></trkpt><trkpt lat="38.6977930181" lon="-0.4697067663"><ele>545.20</ele><time>2012-05-01T07:01:58Z</time></trkpt><trkpt lat="38.6977946945" lon="-0.4697059281"><ele>545.69</ele><time>2012-05-01T07:02:35Z</time></trkpt><trkpt lat="38.6977946945" lon="-0.4697059281"><ele>545.69</ele><time>2012-05-01T07:03:04Z</time></trkpt><trkpt lat="38.6977967899" lon="-0.4697055090"><ele>546.17</ele><time>2012-05-01T07:03:32Z</time></trkpt><trkpt lat="38.6978029925" lon="-0.4697032459"><ele>546.65</ele><time>2012-05-01T07:03:57Z</time></trkpt><trkpt lat="38.6978029925" lon="-0.4697032459"><ele>546.65</ele><time>2012-05-01T07:04:22Z</time></trkpt><trkpt lat="38.6978050880" lon="-0.4697021563"><ele>546.65</ele><time>2012-05-01T07:04:44Z</time></trkpt><trkpt lat="38.6977437325" lon="-0.4695881624"><ele>548.09</ele><time>2012-05-01T07:05:07Z</time></trkpt><trkpt lat="38.6977248732" lon="-0.4695628490"><ele>548.09</ele><time>2012-05-01T07:05:32Z</time></trkpt><trkpt lat="38.6978459917" lon="-0.4696472548"><ele>548.09</ele><time>2012-05-01T07:05:55Z</time></trkpt><trkpt lat="38.6978570558" lon="-0.4696531221"><ele>548.09</ele><time>2012-05-01T07:06:20Z</time></trkpt><trkpt lat="38.6978570558" lon="-0.4696531221"><ele>548.09</ele><time>2012-05-01T07:06:44Z</time></trkpt><trkpt lat="38.6979115382" lon="-0.4696682934"><ele>548.57</ele><time>2012-05-01T07:07:12Z</time></trkpt><trkpt lat="38.6979734804" lon="-0.4696790222"><ele>549.05</ele><time>2012-05-01T07:07:34Z</time></trkpt><trkpt lat="38.6979734804" lon="-0.4696790222"><ele>549.05</ele><time>2012-05-01T07:07:57Z</time></trkpt><trkpt lat="38.6978736520" lon="-0.4696848057"><ele>547.61</ele><time>2012-05-01T07:08:22Z</time></trkpt><trkpt lat="38.6978880689" lon="-0.4696881585"><ele>547.13</ele><time>2012-05-01T07:08:46Z</time></trkpt><trkpt lat="38.6980400328" lon="-0.4697530344"><ele>556.26</ele><time>2012-05-01T07:09:15Z</time></trkpt><trkpt lat="38.6980204191" lon="-0.4697354324"><ele>556.26</ele><time>2012-05-01T07:09:32Z</time></trkpt><trkpt lat="38.6979850475" lon="-0.4697842989"><ele>556.26</ele><time>2012-05-01T07:09:53Z</time></trkpt><trkpt lat="38.6980414577" lon="-0.4697848856"><ele>556.26</ele><time>2012-05-01T07:10:06Z</time></trkpt><trkpt lat="38.6981574632" lon="-0.4697854724"><ele>556.74</ele><time>2012-05-01T07:10:28Z</time></trkpt><trkpt lat="38.6980581377" lon="-0.4697490949"><ele>556.74</ele><time>2012-05-01T07:10:48Z</time></trkpt><trkpt lat="38.6980494205" lon="-0.4697388690"><ele>557.22</ele><time>2012-05-01T07:11:19Z</time></trkpt><trkpt lat="38.6980463192" lon="-0.4697402939"><ele>557.22</ele><time>2012-05-01T07:11:55Z</time></trkpt><trkpt lat="38.6980213411" lon="-0.4697494302"><ele>557.70</ele><time>2012-05-01T07:12:19Z</time></trkpt><trkpt lat="38.6980504263" lon="-0.4697705526"><ele>557.70</ele><time>2012-05-01T07:12:23Z</time></trkpt><trkpt lat="38.6981177330" lon="-0.4698004760"><ele>557.70</ele><time>2012-05-01T07:12:45Z</time></trkpt><trkpt lat="38.6982662603" lon="-0.4699638393"><ele>568.76</ele><time>2012-05-01T07:13:05Z</time></trkpt><trkpt lat="38.6982662603" lon="-0.4699638393"><ele>568.76</ele><time>2012-05-01T07:13:30Z</time></trkpt><trkpt lat="38.6982727144" lon="-0.4699702933"><ele>568.76</ele><time>2012-05-01T07:13:56Z</time></trkpt><trkpt lat="38.6982614826" lon="-0.4699590616"><ele>568.76</ele><time>2012-05-01T07:14:17Z</time></trkpt><trkpt lat="38.6983836070" lon="-0.4698178265"><ele>568.76</ele><time>2012-05-01T07:14:36Z</time></trkpt><trkpt lat="38.6983612273" lon="-0.4698103666"><ele>568.76</ele><time>2012-05-01T07:15:00Z</time></trkpt><trkpt lat="38.6983363330" lon="-0.4697991349"><ele>568.76</ele><time>2012-05-01T07:15:26Z</time></trkpt><trkpt lat="38.6980842054" lon="-0.4697910044"><ele>572.60</ele><time>2012-05-01T07:15:55Z</time></trkpt><trkpt lat="38.6980708782" lon="-0.4697915073"><ele>573.08</ele><time>2012-05-01T07:16:22Z</time></trkpt><trkpt lat="38.6978951097" lon="-0.4697936028"><ele>568.28</ele><time>2012-05-01T07:16:47Z</time></trkpt><trkpt lat="38.6978558823" lon="-0.4697807785"><ele>563.95</ele><time>2012-05-01T07:17:17Z</time></trkpt><trkpt lat="38.6978621688" lon="-0.4697889090"><ele>562.51</ele><time>2012-05-01T07:17:43Z</time></trkpt><trkpt lat="38.6978616659" lon="-0.4697884060"><ele>562.03</ele><time>2012-05-01T07:18:10Z</time></trkpt><trkpt lat="38.6978616659" lon="-0.4697884060"><ele>562.03</ele><time>2012-05-01T07:18:39Z</time></trkpt><trkpt lat="38.6977873184" lon="-0.4697594047"><ele>559.62</ele><time>2012-05-01T07:19:08Z</time></trkpt><trkpt lat="38.6977753323" lon="-0.4697578959"><ele>558.66</ele><time>2012-05-01T07:19:32Z</time></trkpt><trkpt lat="38.6977958679" lon="-0.4697600752"><ele>558.66</ele><time>2012-05-01T07:19:57Z</time></trkpt><trkpt lat="38.6977161560" lon="-0.4697655234"><ele>555.30</ele><time>2012-05-01T07:20:16Z</time></trkpt><trkpt lat="38.6980030686" lon="-0.4696528707"><ele>557.70</ele><time>2012-05-01T07:20:35Z</time></trkpt><trkpt lat="38.6979920045" lon="-0.4696276411"><ele>558.66</ele><time>2012-05-01T07:20:58Z</time></trkpt><trkpt lat="38.6979920045" lon="-0.4696276411"><ele>558.66</ele><time>2012-05-01T07:21:17Z</time></trkpt><trkpt lat="38.6979912501" lon="-0.4696278088"><ele>558.66</ele><time>2012-05-01T07:21:43Z</time></trkpt><trkpt lat="38.6978400405" lon="-0.4697139747"><ele>556.74</ele><time>2012-05-01T07:22:05Z</time></trkpt><trkpt lat="38.6978184991" lon="-0.4697077721"><ele>555.78</ele><time>2012-05-01T07:22:31Z</time></trkpt><trkpt lat="38.6978184991" lon="-0.4697077721"><ele>555.78</ele><time>2012-05-01T07:22:56Z</time></trkpt><trkpt lat="38.6978194211" lon="-0.4697091971"><ele>555.78</ele><time>2012-05-01T07:23:20Z</time></trkpt><trkpt lat="38.6978194211" lon="-0.4697091971"><ele>555.78</ele><time>2012-05-01T07:23:46Z</time></trkpt><trkpt lat="38.6978817824" lon="-0.4698182456"><ele>553.38</ele><time>2012-05-01T07:24:08Z</time></trkpt><trkpt lat="38.6978832074" lon="-0.4698159825"><ele>553.38</ele><time>2012-05-01T07:24:26Z</time></trkpt><trkpt lat="38.6978832074" lon="-0.4698159825"><ele>553.38</ele><time>2012-05-01T07:24:48Z</time></trkpt><trkpt lat="38.6978930980" lon="-0.4698082712"><ele>552.90</ele><time>2012-05-01T07:25:16Z</time></trkpt><trkpt lat="38.6978958640" lon="-0.4697728995"><ele>547.13</ele><time>2012-05-01T07:25:37Z</time></trkpt><trkpt lat="38.6978988815" lon="-0.4697577283"><ele>545.20</ele><time>2012-05-01T07:26:00Z</time></trkpt><trkpt lat="38.6978993844" lon="-0.4697448201"><ele>542.80</ele><time>2012-05-01T07:26:27Z</time></trkpt><trkpt lat="38.6978998035" lon="-0.4697385337"><ele>542.80</ele><time>2012-05-01T07:26:51Z</time></trkpt><trkpt lat="38.6979242787" lon="-0.4697306547"><ele>538.48</ele><time>2012-05-01T07:27:14Z</time></trkpt><trkpt lat="38.6979659367" lon="-0.4697347619"><ele>537.99</ele><time>2012-05-01T07:27:36Z</time></trkpt><trkpt lat="38.6979753245" lon="-0.4696738254"><ele>537.99</ele><time>2012-05-01T07:27:56Z</time></trkpt><trkpt lat="38.6979744863" lon="-0.4696775973"><ele>537.51</ele><time>2012-05-01T07:28:21Z</time></trkpt><trkpt lat="38.6979744863" lon="-0.4696775973"><ele>537.51</ele><time>2012-05-01T07:28:44Z</time></trkpt><trkpt lat="38.6978743225" lon="-0.4696563911"><ele>539.44</ele><time>2012-05-01T07:29:10Z</time></trkpt><trkpt lat="38.6978728138" lon="-0.4696507752"><ele>541.84</ele><time>2012-05-01T07:29:35Z</time></trkpt><trkpt lat="38.6979169864" lon="-0.4696713109"><ele>542.80</ele><time>2012-05-01T07:29:55Z</time></trkpt><trkpt lat="38.6979961116" lon="-0.4697330855"><ele>543.28</ele><time>2012-05-01T07:30:15Z</time></trkpt><trkpt lat="38.6979834549" lon="-0.4697267991"><ele>543.76</ele><time>2012-05-01T07:30:37Z</time></trkpt><trkpt lat="38.6979834549" lon="-0.4697267991"><ele>543.76</ele><time>2012-05-01T07:31:03Z</time></trkpt><trkpt lat="38.6979319900" lon="-0.4697709717"><ele>539.44</ele><time>2012-05-01T07:31:26Z</time></trkpt><trkpt lat="38.6979353428" lon="-0.4697874002"><ele>537.51</ele><time>2012-05-01T07:31:48Z</time></trkpt><trkpt lat="38.6978376098" lon="-0.4697729833"><ele>536.55</ele><time>2012-05-01T07:32:11Z</time></trkpt><trkpt lat="38.6978376098" lon="-0.4696055129"><ele>535.59</ele><time>2012-05-01T07:32:33Z</time></trkpt><trkpt lat="38.6978081893" lon="-0.4697101191"><ele>534.63</ele><time>2012-05-01T07:32:54Z</time></trkpt><trkpt lat="38.6978081055" lon="-0.4697146453"><ele>534.15</ele><time>2012-05-01T07:33:21Z</time></trkpt><trkpt lat="38.6978106201" lon="-0.4697136395"><ele>534.15</ele><time>2012-05-01T07:33:52Z</time></trkpt><trkpt lat="38.6978130508" lon="-0.4697125498"><ele>534.63</ele><time>2012-05-01T07:34:23Z</time></trkpt><trkpt lat="38.6978130508" lon="-0.4697125498"><ele>534.63</ele><time>2012-05-01T07:34:55Z</time></trkpt><trkpt lat="38.6978003103" lon="-0.4696902540"><ele>535.11</ele><time>2012-05-01T07:35:20Z</time></trkpt><trkpt lat="38.6978247017" lon="-0.4696589895"><ele>535.59</ele><time>2012-05-01T07:35:43Z</time></trkpt><trkpt lat="38.6978318263" lon="-0.4696231149"><ele>536.07</ele><time>2012-05-01T07:36:05Z</time></trkpt><trkpt lat="38.6978781782" lon="-0.4696066864"><ele>538.48</ele><time>2012-05-01T07:36:29Z</time></trkpt><trkpt lat="38.6978697963" lon="-0.4696564749"><ele>540.40</ele><time>2012-05-01T07:36:40Z</time></trkpt><trkpt lat="38.6975501105" lon="-0.4697710555"><ele>542.80</ele><time>2012-05-01T07:37:00Z</time></trkpt><trkpt lat="38.6980145518" lon="-0.4697030783"><ele>547.61</ele><time>2012-05-01T07:37:23Z</time></trkpt><trkpt lat="38.6979662720" lon="-0.4696979653"><ele>549.05</ele><time>2012-05-01T07:37:47Z</time></trkpt><trkpt lat="38.6978565529" lon="-0.4697328340"><ele>546.17</ele><time>2012-05-01T07:38:09Z</time></trkpt><trkpt lat="38.6978559662" lon="-0.4697333369"><ele>546.17</ele><time>2012-05-01T07:38:40Z</time></trkpt><trkpt lat="38.6978559662" lon="-0.4697333369"><ele>546.17</ele><time>2012-05-01T07:39:08Z</time></trkpt><trkpt lat="38.6978883203" lon="-0.4696744122"><ele>548.09</ele><time>2012-05-01T07:39:30Z</time></trkpt><trkpt lat="38.6978908349" lon="-0.4697240330"><ele>550.49</ele><time>2012-05-01T07:39:56Z</time></trkpt><trkpt lat="38.6978908349" lon="-0.4697240330"><ele>550.49</ele><time>2012-05-01T07:40:26Z</time></trkpt><trkpt lat="38.6978911702" lon="-0.4697217699"><ele>550.49</ele><time>2012-05-01T07:40:48Z</time></trkpt><trkpt lat="38.6978650186" lon="-0.4697226081"><ele>550.01</ele><time>2012-05-01T07:41:10Z</time></trkpt><trkpt lat="38.6978650186" lon="-0.4697226081"><ele>550.01</ele><time>2012-05-01T07:41:37Z</time></trkpt><trkpt lat="38.6978491768" lon="-0.4697109573"><ele>546.17</ele><time>2012-05-01T07:42:03Z</time></trkpt><trkpt lat="38.6978479195" lon="-0.4697179142"><ele>546.65</ele><time>2012-05-01T07:42:28Z</time></trkpt><trkpt lat="38.6978480872" lon="-0.4697148129"><ele>548.57</ele><time>2012-05-01T07:42:44Z</time></trkpt><trkpt lat="38.6978786811" lon="-0.4696872365"><ele>550.49</ele><time>2012-05-01T07:43:12Z</time></trkpt><trkpt lat="38.6978982948" lon="-0.4696889967"><ele>550.01</ele><time>2012-05-01T07:43:35Z</time></trkpt><trkpt lat="38.6978273001" lon="-0.4696610011"><ele>548.57</ele><time>2012-05-01T07:43:57Z</time></trkpt><trkpt lat="38.6978217680" lon="-0.4696699698"><ele>548.57</ele><time>2012-05-01T07:44:20Z</time></trkpt><trkpt lat="38.6978164036" lon="-0.4696656950"><ele>548.57</ele><time>2012-05-01T07:44:44Z</time></trkpt><trkpt lat="38.6978254560" lon="-0.4696162418"><ele>550.49</ele><time>2012-05-01T07:45:03Z</time></trkpt><trkpt lat="38.6977962870" lon="-0.4696291499"><ele>549.05</ele><time>2012-05-01T07:45:41Z</time></trkpt><trkpt lat="38.6977887433" lon="-0.4696304910"><ele>547.61</ele><time>2012-05-01T07:46:21Z</time></trkpt><trkpt lat="38.6977998912" lon="-0.4696283955"><ele>548.09</ele><time>2012-05-01T07:46:58Z</time></trkpt><trkpt lat="38.6977998912" lon="-0.4696283955"><ele>548.09</ele><time>2012-05-01T07:47:29Z</time></trkpt><trkpt lat="38.6978108715" lon="-0.4696274735"><ele>547.13</ele><time>2012-05-01T07:47:43Z</time></trkpt><trkpt lat="38.6978711374" lon="-0.4696015734"><ele>552.41</ele><time>2012-05-01T07:47:50Z</time></trkpt><trkpt lat="38.6979638413" lon="-0.4697054252"><ele>555.30</ele><time>2012-05-01T07:47:56Z</time></trkpt><trkpt lat="38.6981521826" lon="-0.4698746558"><ele>554.82</ele><time>2012-05-01T07:48:08Z</time></trkpt><trkpt lat="38.6982727144" lon="-0.4699871410"><ele>552.41</ele><time>2012-05-01T07:48:17Z</time></trkpt><trkpt lat="38.6983028054" lon="-0.4699005559"><ele>550.97</ele><time>2012-05-01T07:48:24Z</time></trkpt><trkpt lat="38.6982767377" lon="-0.4698529467"><ele>550.49</ele><time>2012-05-01T07:48:27Z</time></trkpt><trkpt lat="38.6982262786" lon="-0.4697848018"><ele>550.49</ele><time>2012-05-01T07:48:32Z</time></trkpt><trkpt lat="38.6981213372" lon="-0.4695364460"><ele>552.41</ele><time>2012-05-01T07:48:47Z</time></trkpt><trkpt lat="38.6980214249" lon="-0.4692712426"><ele>551.93</ele><time>2012-05-01T07:49:04Z</time></trkpt><trkpt lat="38.6979547888" lon="-0.4690706637"><ele>555.78</ele><time>2012-05-01T07:49:18Z</time></trkpt><trkpt lat="38.6978641804" lon="-0.4688526504"><ele>559.14</ele><time>2012-05-01T07:49:33Z</time></trkpt><trkpt lat="38.6978370231" lon="-0.4687907081"><ele>560.59</ele><time>2012-05-01T07:49:37Z</time></trkpt><trkpt lat="38.6979325768" lon="-0.4685140215"><ele>562.99</ele><time>2012-05-01T07:49:53Z</time></trkpt><trkpt lat="38.6981208343" lon="-0.4684133548"><ele>562.51</ele><time>2012-05-01T07:50:06Z</time></trkpt><trkpt lat="38.6982371751" lon="-0.4684768897"><ele>562.99</ele><time>2012-05-01T07:50:12Z</time></trkpt><trkpt lat="38.6985155381" lon="-0.4686664883"><ele>563.47</ele><time>2012-05-01T07:50:25Z</time></trkpt><trkpt lat="38.6987225711" lon="-0.4689059593"><ele>563.95</ele><time>2012-05-01T07:50:37Z</time></trkpt><trkpt lat="38.6986726988" lon="-0.4690462723"><ele>563.47</ele><time>2012-05-01T07:50:43Z</time></trkpt><trkpt lat="38.6985509936" lon="-0.4694761802"><ele>561.55</ele><time>2012-05-01T07:50:57Z</time></trkpt><trkpt lat="38.6983546894" lon="-0.4700704571"><ele>562.03</ele><time>2012-05-01T07:51:16Z</time></trkpt><trkpt lat="38.6981875543" lon="-0.4705986846"><ele>560.59</ele><time>2012-05-01T07:51:31Z</time></trkpt><trkpt lat="38.6979516875" lon="-0.4713376332"><ele>560.59</ele><time>2012-05-01T07:51:50Z</time></trkpt><trkpt lat="38.6977978796" lon="-0.4718433134"><ele>562.03</ele><time>2012-05-01T07:52:04Z</time></trkpt><trkpt lat="38.6976684630" lon="-0.4723722115"><ele>562.03</ele><time>2012-05-01T07:52:19Z</time></trkpt><trkpt lat="38.6976633500" lon="-0.4727141932"><ele>563.47</ele><time>2012-05-01T07:52:31Z</time></trkpt><trkpt lat="38.6977077741" lon="-0.4729961604"><ele>563.47</ele><time>2012-05-01T07:52:42Z</time></trkpt><trkpt lat="38.6976993084" lon="-0.4731479567"><ele>561.55</ele><time>2012-05-01T07:52:47Z</time></trkpt><trkpt lat="38.6977025773" lon="-0.4732132517"><ele>559.62</ele><time>2012-05-01T07:52:51Z</time></trkpt><trkpt lat="38.6976359412" lon="-0.4737133998"><ele>560.11</ele><time>2012-05-01T07:53:02Z</time></trkpt><trkpt lat="38.6976151541" lon="-0.4738064390"><ele>560.59</ele><time>2012-05-01T07:53:04Z</time></trkpt><trkpt lat="38.6975940317" lon="-0.4740954470"><ele>561.55</ele><time>2012-05-01T07:53:09Z</time></trkpt><trkpt lat="38.6975703947" lon="-0.4744139593"><ele>562.99</ele><time>2012-05-01T07:53:15Z</time></trkpt><trkpt lat="38.6975845601" lon="-0.4745740537"><ele>564.43</ele><time>2012-05-01T07:53:18Z</time></trkpt><trkpt lat="38.6975824647" lon="-0.4747533426"><ele>566.35</ele><time>2012-05-01T07:53:21Z</time></trkpt><trkpt lat="38.6975675449" lon="-0.4749263451"><ele>566.83</ele><time>2012-05-01T07:53:24Z</time></trkpt><trkpt lat="38.6975050159" lon="-0.4750714358"><ele>566.83</ele><time>2012-05-01T07:53:26Z</time></trkpt><trkpt lat="38.6974641122" lon="-0.4752869345"><ele>566.35</ele><time>2012-05-01T07:53:29Z</time></trkpt><trkpt lat="38.6972968932" lon="-0.4756510444"><ele>565.87</ele><time>2012-05-01T07:53:34Z</time></trkpt><trkpt lat="38.6966606230" lon="-0.4763923399"><ele>562.99</ele><time>2012-05-01T07:53:46Z</time></trkpt><trkpt lat="38.6962934956" lon="-0.4768877942"><ele>562.99</ele><time>2012-05-01T07:53:58Z</time></trkpt><trkpt lat="38.6961992830" lon="-0.4770338908"><ele>562.99</ele><time>2012-05-01T07:54:01Z</time></trkpt><trkpt lat="38.6960988678" lon="-0.4771707673"><ele>563.47</ele><time>2012-05-01T07:54:04Z</time></trkpt><trkpt lat="38.6958978698" lon="-0.4774284270"><ele>564.43</ele><time>2012-05-01T07:54:10Z</time></trkpt><trkpt lat="38.6954916827" lon="-0.4780473467"><ele>562.99</ele><time>2012-05-01T07:54:24Z</time></trkpt><trkpt lat="38.6953854840" lon="-0.4782475065"><ele>561.07</ele><time>2012-05-01T07:54:34Z</time></trkpt><trkpt lat="38.6953088734" lon="-0.4786733072"><ele>557.22</ele><time>2012-05-01T07:54:44Z</time></trkpt><trkpt lat="38.6952524632" lon="-0.4794260021"><ele>555.30</ele><time>2012-05-01T07:55:00Z</time></trkpt><trkpt lat="38.6952125654" lon="-0.4799627792"><ele>554.34</ele><time>2012-05-01T07:55:12Z</time></trkpt><trkpt lat="38.6952061113" lon="-0.4804483429"><ele>552.90</ele><time>2012-05-01T07:55:23Z</time></trkpt><trkpt lat="38.6951457616" lon="-0.4808786698"><ele>553.38</ele><time>2012-05-01T07:55:35Z</time></trkpt><trkpt lat="38.6950038560" lon="-0.4812102579"><ele>554.34</ele><time>2012-05-01T07:55:47Z</time></trkpt><trkpt lat="38.6947819032" lon="-0.4814908840"><ele>555.30</ele><time>2012-05-01T07:55:59Z</time></trkpt><trkpt lat="38.6947419215" lon="-0.4816077277"><ele>555.30</ele><time>2012-05-01T07:56:03Z</time></trkpt><trkpt lat="38.6946646404" lon="-0.4818393197"><ele>555.78</ele><time>2012-05-01T07:56:13Z</time></trkpt><trkpt lat="38.6945729423" lon="-0.4821934551"><ele>556.26</ele><time>2012-05-01T07:56:25Z</time></trkpt><trkpt lat="38.6944105010" lon="-0.4826057609"><ele>559.62</ele><time>2012-05-01T07:56:38Z</time></trkpt><trkpt lat="38.6942725349" lon="-0.4829153046"><ele>563.95</ele><time>2012-05-01T07:56:49Z</time></trkpt><trkpt lat="38.6941390112" lon="-0.4831345752"><ele>564.91</ele><time>2012-05-01T07:56:58Z</time></trkpt><trkpt lat="38.6940820981" lon="-0.4833167139"><ele>564.43</ele><time>2012-05-01T07:57:06Z</time></trkpt><trkpt lat="38.6939109396" lon="-0.4836381599"><ele>564.91</ele><time>2012-05-01T07:57:16Z</time></trkpt><trkpt lat="38.6937665194" lon="-0.4839518946"><ele>564.43</ele><time>2012-05-01T07:57:26Z</time></trkpt><trkpt lat="38.6935433093" lon="-0.4842849914"><ele>565.39</ele><time>2012-05-01T07:57:37Z</time></trkpt><trkpt lat="38.6936270446" lon="-0.4845983069"><ele>569.72</ele><time>2012-05-01T07:57:49Z</time></trkpt><trkpt lat="38.6936720554" lon="-0.4846962076"><ele>571.64</ele><time>2012-05-01T07:57:52Z</time></trkpt><trkpt lat="38.6936960276" lon="-0.4848353472"><ele>574.04</ele><time>2012-05-01T07:57:57Z</time></trkpt><trkpt lat="38.6936919205" lon="-0.4848676175"><ele>574.53</ele><time>2012-05-01T07:57:59Z</time></trkpt><trkpt lat="38.6937070917" lon="-0.4848721437"><ele>575.49</ele><time>2012-05-01T07:58:01Z</time></trkpt><trkpt lat="38.6937703751" lon="-0.4849842936"><ele>574.53</ele><time>2012-05-01T07:58:05Z</time></trkpt><trkpt lat="38.6940534320" lon="-0.4851950984"><ele>571.16</ele><time>2012-05-01T07:58:18Z</time></trkpt><trkpt lat="38.6942209024" lon="-0.4854738805"><ele>574.04</ele><time>2012-05-01T07:58:30Z</time></trkpt><trkpt lat="38.6944304500" lon="-0.4856811650"><ele>578.85</ele><time>2012-05-01T07:58:42Z</time></trkpt><trkpt lat="38.6945109162" lon="-0.4857142735"><ele>579.81</ele><time>2012-05-01T07:58:46Z</time></trkpt><trkpt lat="38.6946903728" lon="-0.4858941492"><ele>581.25</ele><time>2012-05-01T07:58:59Z</time></trkpt><trkpt lat="38.6949094757" lon="-0.4860636313"><ele>581.25</ele><time>2012-05-01T07:59:11Z</time></trkpt><trkpt lat="38.6950797960" lon="-0.4862547386"><ele>581.73</ele><time>2012-05-01T07:59:22Z</time></trkpt><trkpt lat="38.6952473503" lon="-0.4863745160"><ele>581.73</ele><time>2012-05-01T07:59:30Z</time></trkpt><trkpt lat="38.6951793730" lon="-0.4864687286"><ele>581.25</ele><time>2012-05-01T07:59:40Z</time></trkpt><trkpt lat="38.6951630283" lon="-0.4865158349"><ele>580.77</ele><time>2012-05-01T07:59:44Z</time></trkpt><trkpt lat="38.6951580830" lon="-0.4866070300"><ele>580.77</ele><time>2012-05-01T07:59:51Z</time></trkpt><trkpt lat="38.6952328496" lon="-0.4869526159"><ele>586.06</ele><time>2012-05-01T08:00:00Z</time></trkpt><trkpt lat="38.6952300835" lon="-0.4869967885"><ele>587.02</ele><time>2012-05-01T08:00:01Z</time></trkpt><trkpt lat="38.6951173469" lon="-0.4873360042"><ele>592.31</ele><time>2012-05-01T08:00:09Z</time></trkpt><trkpt lat="38.6950118188" lon="-0.4873696156"><ele>593.27</ele><time>2012-05-01T08:00:13Z</time></trkpt><trkpt lat="38.6946485471" lon="-0.4874049034"><ele>592.31</ele><time>2012-05-01T08:00:26Z</time></trkpt><trkpt lat="38.6941498239" lon="-0.4875112697"><ele>594.23</ele><time>2012-05-01T08:00:40Z</time></trkpt><trkpt lat="38.6937172338" lon="-0.4877369944"><ele>596.15</ele><time>2012-05-01T08:00:53Z</time></trkpt><trkpt lat="38.6933845561" lon="-0.4879801534"><ele>596.15</ele><time>2012-05-01T08:01:04Z</time></trkpt><trkpt lat="38.6932784412" lon="-0.4880725220"><ele>596.64</ele><time>2012-05-01T08:01:08Z</time></trkpt><trkpt lat="38.6928813905" lon="-0.4884981550"><ele>597.12</ele><time>2012-05-01T08:01:22Z</time></trkpt><trkpt lat="38.6926671490" lon="-0.4887987301"><ele>598.56</ele><time>2012-05-01T08:01:31Z</time></trkpt><trkpt lat="38.6925200466" lon="-0.4891572241"><ele>598.08</ele><time>2012-05-01T08:01:40Z</time></trkpt><trkpt lat="38.6923027877" lon="-0.4895608965"><ele>599.04</ele><time>2012-05-01T08:01:51Z</time></trkpt><trkpt lat="38.6920571979" lon="-0.4899685085"><ele>601.92</ele><time>2012-05-01T08:02:02Z</time></trkpt><trkpt lat="38.6916684452" lon="-0.4906122386"><ele>601.92</ele><time>2012-05-01T08:02:20Z</time></trkpt><trkpt lat="38.6909241322" lon="-0.4912834615"><ele>603.85</ele><time>2012-05-01T08:02:45Z</time></trkpt><trkpt lat="38.6903432664" lon="-0.4914964456"><ele>604.33</ele><time>2012-05-01T08:03:01Z</time></trkpt><trkpt lat="38.6891961191" lon="-0.4922301974"><ele>608.17</ele><time>2012-05-01T08:03:38Z</time></trkpt><trkpt lat="38.6887694802" lon="-0.4924814869"><ele>603.36</ele><time>2012-05-01T08:03:51Z</time></trkpt><trkpt lat="38.6884515546" lon="-0.4927668907"><ele>604.33</ele><time>2012-05-01T08:04:02Z</time></trkpt><trkpt lat="38.6884166021" lon="-0.4928598460"><ele>604.33</ele><time>2012-05-01T08:04:04Z</time></trkpt><trkpt lat="38.6878180504" lon="-0.4931063578"><ele>607.21</ele><time>2012-05-01T08:04:22Z</time></trkpt><trkpt lat="38.6873184890" lon="-0.4936208390"><ele>609.61</ele><time>2012-05-01T08:04:41Z</time></trkpt><trkpt lat="38.6869088653" lon="-0.4941055644"><ele>609.61</ele><time>2012-05-01T08:04:57Z</time></trkpt><trkpt lat="38.6867577396" lon="-0.4945952352"><ele>610.09</ele><time>2012-05-01T08:05:09Z</time></trkpt><trkpt lat="38.6865450907" lon="-0.4952900112"><ele>608.17</ele><time>2012-05-01T08:05:25Z</time></trkpt><trkpt lat="38.6863415781" lon="-0.4959737230"><ele>607.69</ele><time>2012-05-01T08:05:41Z</time></trkpt><trkpt lat="38.6861321982" lon="-0.4967320338"><ele>608.65</ele><time>2012-05-01T08:05:59Z</time></trkpt><trkpt lat="38.6859266739" lon="-0.4974924400"><ele>609.61</ele><time>2012-05-01T08:06:17Z</time></trkpt><trkpt lat="38.6858052202" lon="-0.4981143773"><ele>610.09</ele><time>2012-05-01T08:06:31Z</time></trkpt><trkpt lat="38.6857325491" lon="-0.4988544993"><ele>611.54</ele><time>2012-05-01T08:06:48Z</time></trkpt><trkpt lat="38.6856968421" lon="-0.4994824715"><ele>612.50</ele><time>2012-05-01T08:07:03Z</time></trkpt><trkpt lat="38.6857105047" lon="-0.4998775944"><ele>612.98</ele><time>2012-05-01T08:07:14Z</time></trkpt><trkpt lat="38.6857342254" lon="-0.5004087556"><ele>614.42</ele><time>2012-05-01T08:07:29Z</time></trkpt><trkpt lat="38.6857630592" lon="-0.5009118374"><ele>615.38</ele><time>2012-05-01T08:07:43Z</time></trkpt><trkpt lat="38.6857894622" lon="-0.5013250653"><ele>616.34</ele><time>2012-05-01T08:07:55Z</time></trkpt><trkpt lat="38.6859413423" lon="-0.5012166873"><ele>614.42</ele><time>2012-05-01T08:08:04Z</time></trkpt><trkpt lat="38.6859508976" lon="-0.5011905357"><ele>613.94</ele><time>2012-05-01T08:08:05Z</time></trkpt><trkpt lat="38.6860943958" lon="-0.5009293556"><ele>617.78</ele><time>2012-05-01T08:08:20Z</time></trkpt><trkpt lat="38.6861462798" lon="-0.5008958280"><ele>619.23</ele><time>2012-05-01T08:08:25Z</time></trkpt><trkpt lat="38.6862694938" lon="-0.5009724386"><ele>621.63</ele><time>2012-05-01T08:08:35Z</time></trkpt><trkpt lat="38.6863377225" lon="-0.5010341294"><ele>624.03</ele><time>2012-05-01T08:08:41Z</time></trkpt><trkpt lat="38.6864947155" lon="-0.5011128355"><ele>625.47</ele><time>2012-05-01T08:08:54Z</time></trkpt><trkpt lat="38.6865186039" lon="-0.5011073034"><ele>625.96</ele><time>2012-05-01T08:08:56Z</time></trkpt><trkpt lat="38.6867020838" lon="-0.5011550803"><ele>629.32</ele><time>2012-05-01T08:09:11Z</time></trkpt><trkpt lat="38.6868677940" lon="-0.5011528172"><ele>631.24</ele><time>2012-05-01T08:09:23Z</time></trkpt><trkpt lat="38.6870044190" lon="-0.5012803059"><ele>635.09</ele><time>2012-05-01T08:09:37Z</time></trkpt><trkpt lat="38.6870117951" lon="-0.5012930464"><ele>635.09</ele><time>2012-05-01T08:09:38Z</time></trkpt><trkpt lat="38.6871517729" lon="-0.5013779551"><ele>638.93</ele><time>2012-05-01T08:09:52Z</time></trkpt><trkpt lat="38.6872381903" lon="-0.5014320184"><ele>640.86</ele><time>2012-05-01T08:10:01Z</time></trkpt><trkpt lat="38.6872266233" lon="-0.5015300866"><ele>641.82</ele><time>2012-05-01T08:10:07Z</time></trkpt><trkpt lat="38.6872118711" lon="-0.5016009975"><ele>642.30</ele><time>2012-05-01T08:10:12Z</time></trkpt><trkpt lat="38.6871941015" lon="-0.5016106367"><ele>642.78</ele><time>2012-05-01T08:10:14Z</time></trkpt><trkpt lat="38.6871674471" lon="-0.5016284902"><ele>641.34</ele><time>2012-05-01T08:10:25Z</time></trkpt><trkpt lat="38.6871674471" lon="-0.5016284902"><ele>641.34</ele><time>2012-05-01T08:10:48Z</time></trkpt><trkpt lat="38.6871650163" lon="-0.5016297475"><ele>640.86</ele><time>2012-05-01T08:11:08Z</time></trkpt><trkpt lat="38.6871650163" lon="-0.5016297475"><ele>640.86</ele><time>2012-05-01T08:11:13Z</time></trkpt><trkpt lat="38.6871658545" lon="-0.5016606767"><ele>639.41</ele><time>2012-05-01T08:11:21Z</time></trkpt><trkpt lat="38.6871437263" lon="-0.5018382054"><ele>640.38</ele><time>2012-05-01T08:11:31Z</time></trkpt><trkpt lat="38.6871273816" lon="-0.5019091163"><ele>641.34</ele><time>2012-05-01T08:11:35Z</time></trkpt><trkpt lat="38.6870740727" lon="-0.5020624213"><ele>643.26</ele><time>2012-05-01T08:11:44Z</time></trkpt><trkpt lat="38.6870574765" lon="-0.5021346733"><ele>644.70</ele><time>2012-05-01T08:11:48Z</time></trkpt><trkpt lat="38.6869657785" lon="-0.5024565384"><ele>649.99</ele><time>2012-05-01T08:12:06Z</time></trkpt><trkpt lat="38.6869035009" lon="-0.5027919821"><ele>652.87</ele><time>2012-05-01T08:12:23Z</time></trkpt><trkpt lat="38.6869096197" lon="-0.5031256657"><ele>655.28</ele><time>2012-05-01T08:12:40Z</time></trkpt><trkpt lat="38.6870072689" lon="-0.5033773743"><ele>656.24</ele><time>2012-05-01T08:12:55Z</time></trkpt><trkpt lat="38.6870781798" lon="-0.5034931283"><ele>657.20</ele><time>2012-05-01T08:13:03Z</time></trkpt><trkpt lat="38.6871461570" lon="-0.5035935435"><ele>658.16</ele><time>2012-05-01T08:13:10Z</time></trkpt><trkpt lat="38.6873039044" lon="-0.5039315019"><ele>660.56</ele><time>2012-05-01T08:13:29Z</time></trkpt><trkpt lat="38.6874272022" lon="-0.5042345915"><ele>661.04</ele><time>2012-05-01T08:13:46Z</time></trkpt><trkpt lat="38.6874450557" lon="-0.5042674486"><ele>661.04</ele><time>2012-05-01T08:13:57Z</time></trkpt><trkpt lat="38.6874763202" lon="-0.5043462384"><ele>660.56</ele><time>2012-05-01T08:14:05Z</time></trkpt><trkpt lat="38.6875297967" lon="-0.5044484977"><ele>660.56</ele><time>2012-05-01T08:14:11Z</time></trkpt><trkpt lat="38.6876359954" lon="-0.5047927424"><ele>660.56</ele><time>2012-05-01T08:14:28Z</time></trkpt><trkpt lat="38.6877768952" lon="-0.5051186308"><ele>661.04</ele><time>2012-05-01T08:14:42Z</time></trkpt><trkpt lat="38.6879742891" lon="-0.5056077987"><ele>661.04</ele><time>2012-05-01T08:15:00Z</time></trkpt><trkpt lat="38.6880773026" lon="-0.5059321783"><ele>663.93</ele><time>2012-05-01T08:15:15Z</time></trkpt><trkpt lat="38.6880888697" lon="-0.5062023271"><ele>668.25</ele><time>2012-05-01T08:15:29Z</time></trkpt><trkpt lat="38.6881301086" lon="-0.5065035727"><ele>670.18</ele><time>2012-05-01T08:15:46Z</time></trkpt><trkpt lat="38.6881943140" lon="-0.5068302155"><ele>674.50</ele><time>2012-05-01T08:16:05Z</time></trkpt><trkpt lat="38.6882321164" lon="-0.5071465485"><ele>675.94</ele><time>2012-05-01T08:16:20Z</time></trkpt><trkpt lat="38.6882373132" lon="-0.5075045396"><ele>677.87</ele><time>2012-05-01T08:16:36Z</time></trkpt><trkpt lat="38.6882947292" lon="-0.5078608543"><ele>678.35</ele><time>2012-05-01T08:16:52Z</time></trkpt><trkpt lat="38.6883132532" lon="-0.5081822164"><ele>682.19</ele><time>2012-05-01T08:17:07Z</time></trkpt><trkpt lat="38.6882347148" lon="-0.5083565600"><ele>685.56</ele><time>2012-05-01T08:17:18Z</time></trkpt><trkpt lat="38.6881971639" lon="-0.5084051751"><ele>686.04</ele><time>2012-05-01T08:17:22Z</time></trkpt><trkpt lat="38.6881504767" lon="-0.5085011479"><ele>687.00</ele><time>2012-05-01T08:17:28Z</time></trkpt><trkpt lat="38.6881372333" lon="-0.5085683707"><ele>687.96</ele><time>2012-05-01T08:17:32Z</time></trkpt><trkpt lat="38.6880326271" lon="-0.5088084284"><ele>691.33</ele><time>2012-05-01T08:17:47Z</time></trkpt><trkpt lat="38.6879708525" lon="-0.5088687781"><ele>691.81</ele><time>2012-05-01T08:17:52Z</time></trkpt><trkpt lat="38.6878547631" lon="-0.5088808481"><ele>692.77</ele><time>2012-05-01T08:18:00Z</time></trkpt><trkpt lat="38.6876236740" lon="-0.5088978633"><ele>696.13</ele><time>2012-05-01T08:18:17Z</time></trkpt><trkpt lat="38.6874709558" lon="-0.5089312233"><ele>697.57</ele><time>2012-05-01T08:18:30Z</time></trkpt><trkpt lat="38.6874570418" lon="-0.5089412816"><ele>697.57</ele><time>2012-05-01T08:18:32Z</time></trkpt><trkpt lat="38.6874715425" lon="-0.5090231728"><ele>698.05</ele><time>2012-05-01T08:18:38Z</time></trkpt><trkpt lat="38.6875423696" lon="-0.5090748891"><ele>700.46</ele><time>2012-05-01T08:18:46Z</time></trkpt><trkpt lat="38.6876254342" lon="-0.5090956762"><ele>702.86</ele><time>2012-05-01T08:18:54Z</time></trkpt><trkpt lat="38.6876701936" lon="-0.5091195647"><ele>702.86</ele><time>2012-05-01T08:18:58Z</time></trkpt><trkpt lat="38.6878432799" lon="-0.5091965944"><ele>704.78</ele><time>2012-05-01T08:19:12Z</time></trkpt><trkpt lat="38.6879619677" lon="-0.5092535075"><ele>705.75</ele><time>2012-05-01T08:19:21Z</time></trkpt><trkpt lat="38.6881301925" lon="-0.5091951694"><ele>707.19</ele><time>2012-05-01T08:19:34Z</time></trkpt><trkpt lat="38.6881491356" lon="-0.5091509130"><ele>707.67</ele><time>2012-05-01T08:19:36Z</time></trkpt><trkpt lat="38.6882925499" lon="-0.5088989530"><ele>709.11</ele><time>2012-05-01T08:19:49Z</time></trkpt><trkpt lat="38.6883327831" lon="-0.5089466460"><ele>709.59</ele><time>2012-05-01T08:19:54Z</time></trkpt><trkpt lat="38.6883114092" lon="-0.5090110190"><ele>710.07</ele><time>2012-05-01T08:19:57Z</time></trkpt><trkpt lat="38.6882058810" lon="-0.5091558583"><ele>711.51</ele><time>2012-05-01T08:20:06Z</time></trkpt><trkpt lat="38.6880778894" lon="-0.5094172899"><ele>711.51</ele><time>2012-05-01T08:20:21Z</time></trkpt><trkpt lat="38.6877832655" lon="-0.5094117578"><ele>713.92</ele><time>2012-05-01T08:20:36Z</time></trkpt><trkpt lat="38.6875498295" lon="-0.5093535874"><ele>714.88</ele><time>2012-05-01T08:20:50Z</time></trkpt><trkpt lat="38.6873162258" lon="-0.5093426071"><ele>715.84</ele><time>2012-05-01T08:21:04Z</time></trkpt><trkpt lat="38.6870625056" lon="-0.5093217362"><ele>718.72</ele><time>2012-05-01T08:21:19Z</time></trkpt><trkpt lat="38.6867462564" lon="-0.5093345605"><ele>724.01</ele><time>2012-05-01T08:21:36Z</time></trkpt><trkpt lat="38.6866451707" lon="-0.5096248258"><ele>727.86</ele><time>2012-05-01T08:21:50Z</time></trkpt><trkpt lat="38.6867086217" lon="-0.5099940486"><ele>731.70</ele><time>2012-05-01T08:22:04Z</time></trkpt><trkpt lat="38.6868129764" lon="-0.5104362778"><ele>734.10</ele><time>2012-05-01T08:22:19Z</time></trkpt><trkpt lat="38.6869875714" lon="-0.5109374318"><ele>729.78</ele><time>2012-05-01T08:22:34Z</time></trkpt><trkpt lat="38.6871589813" lon="-0.5114777293"><ele>731.70</ele><time>2012-05-01T08:22:48Z</time></trkpt><trkpt lat="38.6873813532" lon="-0.5122178514"><ele>732.66</ele><time>2012-05-01T08:23:04Z</time></trkpt><trkpt lat="38.6874565389" lon="-0.5124600884"><ele>731.70</ele><time>2012-05-01T08:23:09Z</time></trkpt><trkpt lat="38.6875829380" lon="-0.5129173212"><ele>730.74</ele><time>2012-05-01T08:23:17Z</time></trkpt><trkpt lat="38.6875142902" lon="-0.5132023897"><ele>730.26</ele><time>2012-05-01T08:23:22Z</time></trkpt><trkpt lat="38.6873888969" lon="-0.5133535154"><ele>730.26</ele><time>2012-05-01T08:23:26Z</time></trkpt><trkpt lat="38.6872935109" lon="-0.5135806650"><ele>729.78</ele><time>2012-05-01T08:23:31Z</time></trkpt><trkpt lat="38.6874447204" lon="-0.5142423324"><ele>732.66</ele><time>2012-05-01T08:23:46Z</time></trkpt><trkpt lat="38.6876588780" lon="-0.5148949474"><ele>732.66</ele><time>2012-05-01T08:24:01Z</time></trkpt><trkpt lat="38.6879368220" lon="-0.5155378394"><ele>733.14</ele><time>2012-05-01T08:24:16Z</time></trkpt><trkpt lat="38.6880241614" lon="-0.5156492349"><ele>733.62</ele><time>2012-05-01T08:24:19Z</time></trkpt><trkpt lat="38.6886075418" lon="-0.5159493908"><ele>733.62</ele><time>2012-05-01T08:24:35Z</time></trkpt><trkpt lat="38.6889647786" lon="-0.5159921385"><ele>734.58</ele><time>2012-05-01T08:24:44Z</time></trkpt><trkpt lat="38.6895016395" lon="-0.5160849262"><ele>735.55</ele><time>2012-05-01T08:24:58Z</time></trkpt><trkpt lat="38.6897555273" lon="-0.5162348785"><ele>736.03</ele><time>2012-05-01T08:25:07Z</time></trkpt><trkpt lat="38.6897747219" lon="-0.5162084755"><ele>735.55</ele><time>2012-05-01T08:25:10Z</time></trkpt><trkpt lat="38.6897828523" lon="-0.5160330422"><ele>734.58</ele><time>2012-05-01T08:25:20Z</time></trkpt><trkpt lat="38.6899841018" lon="-0.5159164499"><ele>736.99</ele><time>2012-05-01T08:25:34Z</time></trkpt><trkpt lat="38.6900032125" lon="-0.5159256700"><ele>736.99</ele><time>2012-05-01T08:25:35Z</time></trkpt><trkpt lat="38.6902057193" lon="-0.5160944816"><ele>738.43</ele><time>2012-05-01T08:25:49Z</time></trkpt><trkpt lat="38.6902597826" lon="-0.5161651410"><ele>737.95</ele><time>2012-05-01T08:25:54Z</time></trkpt><trkpt lat="38.6903925519" lon="-0.5161417555"><ele>740.83</ele><time>2012-05-01T08:26:04Z</time></trkpt><trkpt lat="38.6903966591" lon="-0.5159765482"><ele>743.24</ele><time>2012-05-01T08:26:14Z</time></trkpt><trkpt lat="38.6903900374" lon="-0.5159466248"><ele>743.24</ele><time>2012-05-01T08:26:16Z</time></trkpt><trkpt lat="38.6903891992" lon="-0.5158735346"><ele>742.76</ele><time>2012-05-01T08:26:20Z</time></trkpt><trkpt lat="38.6903867684" lon="-0.5158390850"><ele>743.72</ele><time>2012-05-01T08:26:22Z</time></trkpt><trkpt lat="38.6903750338" lon="-0.5157398432"><ele>745.64</ele><time>2012-05-01T08:26:28Z</time></trkpt><trkpt lat="38.6903364770" lon="-0.5156180542"><ele>749.00</ele><time>2012-05-01T08:26:36Z</time></trkpt><trkpt lat="38.6903249100" lon="-0.5154080875"><ele>752.37</ele><time>2012-05-01T08:26:50Z</time></trkpt><trkpt lat="38.6903332919" lon="-0.5153543595"><ele>753.33</ele><time>2012-05-01T08:26:54Z</time></trkpt><trkpt lat="38.6903454456" lon="-0.5152787548"><ele>754.29</ele><time>2012-05-01T08:27:00Z</time></trkpt><trkpt lat="38.6905108206" lon="-0.5152641702"><ele>758.62</ele><time>2012-05-01T08:27:16Z</time></trkpt><trkpt lat="38.6905207112" lon="-0.5152704567"><ele>759.10</ele><time>2012-05-01T08:27:17Z</time></trkpt><trkpt lat="38.6907031853" lon="-0.5152771622"><ele>761.02</ele><time>2012-05-01T08:27:33Z</time></trkpt><trkpt lat="38.6909280717" lon="-0.5152144656"><ele>764.39</ele><time>2012-05-01T08:27:52Z</time></trkpt><trkpt lat="38.6911325902" lon="-0.5151566304"><ele>766.79</ele><time>2012-05-01T08:28:08Z</time></trkpt><trkpt lat="38.6913449876" lon="-0.5151018128"><ele>770.63</ele><time>2012-05-01T08:28:22Z</time></trkpt><trkpt lat="38.6916474905" lon="-0.5149714742"><ele>771.60</ele><time>2012-05-01T08:28:37Z</time></trkpt><trkpt lat="38.6919086706" lon="-0.5147301592"><ele>771.60</ele><time>2012-05-01T08:28:51Z</time></trkpt><trkpt lat="38.6921980139" lon="-0.5147211906"><ele>772.56</ele><time>2012-05-01T08:29:03Z</time></trkpt><trkpt lat="38.6925134249" lon="-0.5146137346"><ele>775.92</ele><time>2012-05-01T08:29:18Z</time></trkpt><trkpt lat="38.6927965656" lon="-0.5144714937"><ele>776.40</ele><time>2012-05-01T08:29:32Z</time></trkpt><trkpt lat="38.6931126472" lon="-0.5143895186"><ele>775.92</ele><time>2012-05-01T08:29:47Z</time></trkpt><trkpt lat="38.6934888270" lon="-0.5144087132"><ele>777.36</ele><time>2012-05-01T08:30:02Z</time></trkpt><trkpt lat="38.6938357539" lon="-0.5142028537"><ele>778.32</ele><time>2012-05-01T08:30:15Z</time></trkpt><trkpt lat="38.6941131111" lon="-0.5140062142"><ele>778.81</ele><time>2012-05-01T08:30:26Z</time></trkpt><trkpt lat="38.6943972576" lon="-0.5137602892"><ele>781.21</ele><time>2012-05-01T08:30:39Z</time></trkpt><trkpt lat="38.6946856789" lon="-0.5135473050"><ele>781.69</ele><time>2012-05-01T08:30:52Z</time></trkpt><trkpt lat="38.6950744316" lon="-0.5133011285"><ele>784.57</ele><time>2012-05-01T08:31:09Z</time></trkpt><trkpt lat="38.6951999087" lon="-0.5129183270"><ele>786.98</ele><time>2012-05-01T08:31:23Z</time></trkpt><trkpt lat="38.6952975579" lon="-0.5124961305"><ele>787.94</ele><time>2012-05-01T08:31:37Z</time></trkpt><trkpt lat="38.6955897510" lon="-0.5119803920"><ele>789.38</ele><time>2012-05-01T08:31:56Z</time></trkpt><trkpt lat="38.6959100235" lon="-0.5115738697"><ele>790.34</ele><time>2012-05-01T08:32:13Z</time></trkpt><trkpt lat="38.6961691920" lon="-0.5112579558"><ele>792.26</ele><time>2012-05-01T08:32:25Z</time></trkpt><trkpt lat="38.6964576133" lon="-0.5108464044"><ele>793.22</ele><time>2012-05-01T08:32:40Z</time></trkpt><trkpt lat="38.6967326235" lon="-0.5104684643"><ele>791.30</ele><time>2012-05-01T08:32:53Z</time></trkpt><trkpt lat="38.6971705779" lon="-0.5100680608"><ele>790.82</ele><time>2012-05-01T08:33:10Z</time></trkpt><trkpt lat="38.6974196881" lon="-0.5095165316"><ele>790.34</ele><time>2012-05-01T08:33:25Z</time></trkpt><trkpt lat="38.6976831313" lon="-0.5091186427"><ele>786.98</ele><time>2012-05-01T08:33:40Z</time></trkpt><trkpt lat="38.6976935249" lon="-0.5091056507"><ele>786.98</ele><time>2012-05-01T08:33:45Z</time></trkpt><trkpt lat="38.6977538746" lon="-0.5090641603"><ele>786.50</ele><time>2012-05-01T08:33:49Z</time></trkpt><trkpt lat="38.6978917569" lon="-0.5085809436"><ele>786.98</ele><time>2012-05-01T08:34:04Z</time></trkpt><trkpt lat="38.6980738118" lon="-0.5079275742"><ele>787.46</ele><time>2012-05-01T08:34:23Z</time></trkpt><trkpt lat="38.6983361654" lon="-0.5076798052"><ele>787.46</ele><time>2012-05-01T08:34:37Z</time></trkpt><trkpt lat="38.6985350680" lon="-0.5075052939"><ele>788.90</ele><time>2012-05-01T08:34:49Z</time></trkpt><trkpt lat="38.6987132672" lon="-0.5072974227"><ele>792.74</ele><time>2012-05-01T08:35:04Z</time></trkpt><trkpt lat="38.6988410912" lon="-0.5070535094"><ele>796.11</ele><time>2012-05-01T08:35:19Z</time></trkpt><trkpt lat="38.6989972461" lon="-0.5068685208"><ele>798.51</ele><time>2012-05-01T08:35:33Z</time></trkpt><trkpt lat="38.6992448475" lon="-0.5068318918"><ele>799.47</ele><time>2012-05-01T08:35:48Z</time></trkpt><trkpt lat="38.6995072011" lon="-0.5068466440"><ele>801.40</ele><time>2012-05-01T08:36:04Z</time></trkpt><trkpt lat="38.6995231267" lon="-0.5068445485"><ele>801.88</ele><time>2012-05-01T08:36:05Z</time></trkpt><trkpt lat="38.6996054370" lon="-0.5068742204"><ele>803.32</ele><time>2012-05-01T08:36:10Z</time></trkpt><trkpt lat="38.6998114642" lon="-0.5069042277"><ele>803.80</ele><time>2012-05-01T08:36:21Z</time></trkpt><trkpt lat="38.6998579837" lon="-0.5068679340"><ele>803.32</ele><time>2012-05-01T08:36:26Z</time></trkpt><trkpt lat="38.6998909246" lon="-0.5070245918"><ele>802.84</ele><time>2012-05-01T08:36:35Z</time></trkpt><trkpt lat="38.7001609057" lon="-0.5071587861"><ele>804.76</ele><time>2012-05-01T08:36:51Z</time></trkpt><trkpt lat="38.7004227564" lon="-0.5073221494"><ele>805.72</ele><time>2012-05-01T08:37:07Z</time></trkpt><trkpt lat="38.7006524205" lon="-0.5074954033"><ele>806.68</ele><time>2012-05-01T08:37:21Z</time></trkpt><trkpt lat="38.7009230722" lon="-0.5076157674"><ele>809.09</ele><time>2012-05-01T08:37:36Z</time></trkpt><trkpt lat="38.7012270838" lon="-0.5077012628"><ele>807.16</ele><time>2012-05-01T08:37:48Z</time></trkpt><trkpt lat="38.7016100530" lon="-0.5076530669"><ele>807.16</ele><time>2012-05-01T08:38:02Z</time></trkpt><trkpt lat="38.7016811315" lon="-0.5076564196"><ele>808.13</ele><time>2012-05-01T08:38:05Z</time></trkpt><trkpt lat="38.7017760985" lon="-0.5076213833"><ele>809.57</ele><time>2012-05-01T08:38:13Z</time></trkpt><trkpt lat="38.7019796111" lon="-0.5075640511"><ele>811.97</ele><time>2012-05-01T08:38:25Z</time></trkpt><trkpt lat="38.7020327523" lon="-0.5074712634"><ele>814.37</ele><time>2012-05-01T08:38:30Z</time></trkpt><trkpt lat="38.7020683754" lon="-0.5071663298"><ele>814.85</ele><time>2012-05-01T08:38:43Z</time></trkpt><trkpt lat="38.7021573074" lon="-0.5070871208"><ele>814.85</ele><time>2012-05-01T08:38:50Z</time></trkpt><trkpt lat="38.7023491692" lon="-0.5069271103"><ele>817.26</ele><time>2012-05-01T08:39:06Z</time></trkpt><trkpt lat="38.7025837786" lon="-0.5067613162"><ele>819.18</ele><time>2012-05-01T08:39:22Z</time></trkpt><trkpt lat="38.7027965114" lon="-0.5065336637"><ele>820.14</ele><time>2012-05-01T08:39:38Z</time></trkpt><trkpt lat="38.7029917259" lon="-0.5062839668"><ele>822.06</ele><time>2012-05-01T08:39:54Z</time></trkpt><trkpt lat="38.7032127567" lon="-0.5060677975"><ele>823.99</ele><time>2012-05-01T08:40:11Z</time></trkpt><trkpt lat="38.7033865973" lon="-0.5059174262"><ele>825.91</ele><time>2012-05-01T08:40:25Z</time></trkpt><trkpt lat="38.7035301793" lon="-0.5057305936"><ele>828.31</ele><time>2012-05-01T08:40:39Z</time></trkpt><trkpt lat="38.7036140822" lon="-0.5055401567"><ele>830.24</ele><time>2012-05-01T08:40:52Z</time></trkpt><trkpt lat="38.7036564946" lon="-0.5054710060"><ele>830.72</ele><time>2012-05-01T08:40:57Z</time></trkpt><trkpt lat="38.7038528826" lon="-0.5053148512"><ele>833.12</ele><time>2012-05-01T08:41:13Z</time></trkpt><trkpt lat="38.7040698063" lon="-0.5053417571"><ele>835.04</ele><time>2012-05-01T08:41:28Z</time></trkpt><trkpt lat="38.7043277174" lon="-0.5054707546"><ele>837.45</ele><time>2012-05-01T08:41:46Z</time></trkpt><trkpt lat="38.7045650091" lon="-0.5055300146"><ele>840.81</ele><time>2012-05-01T08:42:03Z</time></trkpt><trkpt lat="38.7047981936" lon="-0.5055751093"><ele>843.69</ele><time>2012-05-01T08:42:20Z</time></trkpt><trkpt lat="38.7048629858" lon="-0.5056055356"><ele>844.66</ele><time>2012-05-01T08:42:25Z</time></trkpt><trkpt lat="38.7049566954" lon="-0.5056468584"><ele>846.10</ele><time>2012-05-01T08:42:32Z</time></trkpt><trkpt lat="38.7051251717" lon="-0.5057391431"><ele>847.06</ele><time>2012-05-01T08:42:45Z</time></trkpt><trkpt lat="38.7051747087" lon="-0.5057644565"><ele>847.54</ele><time>2012-05-01T08:42:49Z</time></trkpt><trkpt lat="38.7053642236" lon="-0.5058432464"><ele>850.42</ele><time>2012-05-01T08:43:04Z</time></trkpt><trkpt lat="38.7055451889" lon="-0.5058585014"><ele>853.31</ele><time>2012-05-01T08:43:18Z</time></trkpt><trkpt lat="38.7055574264" lon="-0.5058556516"><ele>853.79</ele><time>2012-05-01T08:43:19Z</time></trkpt><trkpt lat="38.7056627031" lon="-0.5058488622"><ele>855.23</ele><time>2012-05-01T08:43:27Z</time></trkpt><trkpt lat="38.7057494558" lon="-0.5058335233"><ele>856.19</ele><time>2012-05-01T08:43:33Z</time></trkpt><trkpt lat="38.7059718277" lon="-0.5056992453"><ele>857.15</ele><time>2012-05-01T08:43:49Z</time></trkpt><trkpt lat="38.7061392143" lon="-0.5055792164"><ele>859.08</ele><time>2012-05-01T08:44:04Z</time></trkpt><trkpt lat="38.7062496878" lon="-0.5054469500"><ele>861.00</ele><time>2012-05-01T08:44:18Z</time></trkpt><trkpt lat="38.7063651066" lon="-0.5052842572"><ele>864.36</ele><time>2012-05-01T08:44:34Z</time></trkpt><trkpt lat="38.7064404599" lon="-0.5051845126"><ele>866.77</ele><time>2012-05-01T08:44:44Z</time></trkpt><trkpt lat="38.7065353431" lon="-0.5049964227"><ele>869.17</ele><time>2012-05-01T08:45:00Z</time></trkpt><trkpt lat="38.7066193298" lon="-0.5048017111"><ele>871.57</ele><time>2012-05-01T08:45:15Z</time></trkpt><trkpt lat="38.7066568807" lon="-0.5046917405"><ele>871.57</ele><time>2012-05-01T08:45:24Z</time></trkpt><trkpt lat="38.7067168113" lon="-0.5045439675"><ele>872.53</ele><time>2012-05-01T08:45:35Z</time></trkpt><trkpt lat="38.7067486625" lon="-0.5044685304"><ele>873.98</ele><time>2012-05-01T08:45:41Z</time></trkpt><trkpt lat="38.7067890633" lon="-0.5043595657"><ele>874.94</ele><time>2012-05-01T08:45:49Z</time></trkpt><trkpt lat="38.7068158016" lon="-0.5043138843"><ele>875.42</ele><time>2012-05-01T08:45:53Z</time></trkpt><trkpt lat="38.7068134546" lon="-0.5042244494"><ele>875.90</ele><time>2012-05-01T08:46:01Z</time></trkpt><trkpt lat="38.7069353275" lon="-0.5040879082"><ele>879.26</ele><time>2012-05-01T08:46:16Z</time></trkpt><trkpt lat="38.7069539353" lon="-0.5040705577"><ele>879.26</ele><time>2012-05-01T08:46:18Z</time></trkpt><trkpt lat="38.7070827652" lon="-0.5038932804"><ele>880.71</ele><time>2012-05-01T08:46:35Z</time></trkpt><trkpt lat="38.7071601301" lon="-0.5036989879"><ele>884.07</ele><time>2012-05-01T08:46:49Z</time></trkpt><trkpt lat="38.7072309572" lon="-0.5034291744"><ele>884.55</ele><time>2012-05-01T08:47:06Z</time></trkpt><trkpt lat="38.7072903011" lon="-0.5031361431"><ele>886.47</ele><time>2012-05-01T08:47:22Z</time></trkpt><trkpt lat="38.7073573563" lon="-0.5028435308"><ele>887.91</ele><time>2012-05-01T08:47:38Z</time></trkpt><trkpt lat="38.7074764632" lon="-0.5025465600"><ele>890.32</ele><time>2012-05-01T08:47:55Z</time></trkpt><trkpt lat="38.7075632997" lon="-0.5023562070"><ele>890.80</ele><time>2012-05-01T08:48:11Z</time></trkpt><trkpt lat="38.7075632997" lon="-0.5023562070"><ele>890.80</ele><time>2012-05-01T08:48:38Z</time></trkpt><trkpt lat="38.7075607851" lon="-0.5023587216"><ele>890.80</ele><time>2012-05-01T08:49:24Z</time></trkpt><trkpt lat="38.7075604498" lon="-0.5023611523"><ele>890.80</ele><time>2012-05-01T08:50:09Z</time></trkpt><trkpt lat="38.7075565942" lon="-0.5023495015"><ele>890.80</ele><time>2012-05-01T08:50:45Z</time></trkpt><trkpt lat="38.7075562589" lon="-0.5023382697"><ele>891.28</ele><time>2012-05-01T08:50:54Z</time></trkpt><trkpt lat="38.7075915467" lon="-0.5022174865"><ele>891.28</ele><time>2012-05-01T08:51:01Z</time></trkpt><trkpt lat="38.7076532375" lon="-0.5019692983"><ele>893.68</ele><time>2012-05-01T08:51:15Z</time></trkpt><trkpt lat="38.7077472825" lon="-0.5017112195"><ele>895.61</ele><time>2012-05-01T08:51:29Z</time></trkpt><trkpt lat="38.7079342827" lon="-0.5015098024"><ele>897.05</ele><time>2012-05-01T08:51:46Z</time></trkpt><trkpt lat="38.7081468478" lon="-0.5015066173"><ele>901.37</ele><time>2012-05-01T08:52:02Z</time></trkpt><trkpt lat="38.7082700618" lon="-0.5016817991"><ele>905.22</ele><time>2012-05-01T08:52:17Z</time></trkpt><trkpt lat="38.7084508594" lon="-0.5018357746"><ele>908.10</ele><time>2012-05-01T08:52:35Z</time></trkpt><trkpt lat="38.7086689565" lon="-0.5018130597"><ele>911.47</ele><time>2012-05-01T08:52:54Z</time></trkpt><trkpt lat="38.7087452319" lon="-0.5018164963"><ele>911.95</ele><time>2012-05-01T08:53:00Z</time></trkpt><trkpt lat="38.7088158913" lon="-0.5018390436"><ele>912.43</ele><time>2012-05-01T08:53:06Z</time></trkpt><trkpt lat="38.7088733912" lon="-0.5018611718"><ele>912.91</ele><time>2012-05-01T08:53:11Z</time></trkpt><trkpt lat="38.7090453878" lon="-0.5019521154"><ele>915.31</ele><time>2012-05-01T08:53:27Z</time></trkpt><trkpt lat="38.7091857009" lon="-0.5021138024"><ele>919.16</ele><time>2012-05-01T08:53:43Z</time></trkpt><trkpt lat="38.7093462143" lon="-0.5023179017"><ele>921.08</ele><time>2012-05-01T08:54:00Z</time></trkpt><trkpt lat="38.7093644030" lon="-0.5023422092"><ele>920.60</ele><time>2012-05-01T08:54:02Z</time></trkpt><trkpt lat="38.7094551791" lon="-0.5024924129"><ele>923.00</ele><time>2012-05-01T08:54:14Z</time></trkpt><trkpt lat="38.7094923109" lon="-0.5025845300"><ele>924.93</ele><time>2012-05-01T08:54:21Z</time></trkpt><trkpt lat="38.7096300256" lon="-0.5027454626"><ele>927.33</ele><time>2012-05-01T08:54:36Z</time></trkpt><trkpt lat="38.7097808998" lon="-0.5029204767"><ele>932.14</ele><time>2012-05-01T08:54:52Z</time></trkpt><trkpt lat="38.7099343725" lon="-0.5031134281"><ele>933.10</ele><time>2012-05-01T08:55:09Z</time></trkpt><trkpt lat="38.7100347038" lon="-0.5032626260"><ele>933.10</ele><time>2012-05-01T08:55:21Z</time></trkpt><trkpt lat="38.7100886833" lon="-0.5033467803"><ele>933.10</ele><time>2012-05-01T08:55:28Z</time></trkpt><trkpt lat="38.7101144157" lon="-0.5033989996"><ele>933.10</ele><time>2012-05-01T08:55:32Z</time></trkpt><trkpt lat="38.7102478556" lon="-0.5036265682"><ele>936.94</ele><time>2012-05-01T08:55:49Z</time></trkpt><trkpt lat="38.7102630269" lon="-0.5036744289"><ele>938.86</ele><time>2012-05-01T08:55:52Z</time></trkpt><trkpt lat="38.7102968898" lon="-0.5037298333"><ele>941.27</ele><time>2012-05-01T08:55:56Z</time></trkpt><trkpt lat="38.7104299106" lon="-0.5040024128"><ele>943.19</ele><time>2012-05-01T08:56:13Z</time></trkpt><trkpt lat="38.7106082775" lon="-0.5042127986"><ele>948.96</ele><time>2012-05-01T08:56:30Z</time></trkpt><trkpt lat="38.7107793521" lon="-0.5043008085"><ele>951.36</ele><time>2012-05-01T08:56:45Z</time></trkpt><trkpt lat="38.7108020671" lon="-0.5043041613"><ele>951.84</ele><time>2012-05-01T08:56:47Z</time></trkpt><trkpt lat="38.7109574676" lon="-0.5044130422"><ele>953.77</ele><time>2012-05-01T08:57:02Z</time></trkpt><trkpt lat="38.7111349963" lon="-0.5045416206"><ele>955.21</ele><time>2012-05-01T08:57:17Z</time></trkpt><trkpt lat="38.7113132793" lon="-0.5046707019"><ele>957.61</ele><time>2012-05-01T08:57:34Z</time></trkpt><trkpt lat="38.7113828491" lon="-0.5046996195"><ele>958.09</ele><time>2012-05-01T08:57:41Z</time></trkpt><trkpt lat="38.7114414386" lon="-0.5047323089"><ele>959.05</ele><time>2012-05-01T08:57:46Z</time></trkpt><trkpt lat="38.7115286943" lon="-0.5047846958"><ele>960.98</ele><time>2012-05-01T08:57:53Z</time></trkpt><trkpt lat="38.7116574403" lon="-0.5048380885"><ele>961.46</ele><time>2012-05-01T08:58:03Z</time></trkpt><trkpt lat="38.7117451988" lon="-0.5050465465"><ele>962.90</ele><time>2012-05-01T08:58:17Z</time></trkpt><trkpt lat="38.7116742041" lon="-0.5052332114"><ele>965.30</ele><time>2012-05-01T08:58:33Z</time></trkpt><trkpt lat="38.7116573565" lon="-0.5052363966"><ele>965.78</ele><time>2012-05-01T08:58:46Z</time></trkpt><trkpt lat="38.7116669118" lon="-0.5052332953"><ele>965.78</ele><time>2012-05-01T08:58:58Z</time></trkpt><trkpt lat="38.7116669118" lon="-0.5052332953"><ele>965.78</ele><time>2012-05-01T08:58:59Z</time></trkpt><trkpt lat="38.7118032854" lon="-0.5052533280"><ele>965.78</ele><time>2012-05-01T08:59:09Z</time></trkpt><trkpt lat="38.7119363062" lon="-0.5053217243"><ele>969.15</ele><time>2012-05-01T08:59:21Z</time></trkpt><trkpt lat="38.7120058760" lon="-0.5053342134"><ele>970.59</ele><time>2012-05-01T08:59:27Z</time></trkpt><trkpt lat="38.7120306864" lon="-0.5053254124"><ele>971.07</ele><time>2012-05-01T08:59:29Z</time></trkpt><trkpt lat="38.7120798882" lon="-0.5051799025"><ele>972.03</ele><time>2012-05-01T08:59:38Z</time></trkpt><trkpt lat="38.7121057883" lon="-0.5051150266"><ele>973.47</ele><time>2012-05-01T08:59:50Z</time></trkpt><trkpt lat="38.7121550739" lon="-0.5051108357"><ele>975.39</ele><time>2012-05-01T08:59:59Z</time></trkpt><trkpt lat="38.7122259010" lon="-0.5051830038"><ele>977.32</ele><time>2012-05-01T09:00:13Z</time></trkpt><trkpt lat="38.7122865021" lon="-0.5051925592"><ele>980.20</ele><time>2012-05-01T09:00:24Z</time></trkpt><trkpt lat="38.7123558205" lon="-0.5052382406"><ele>984.05</ele><time>2012-05-01T09:00:37Z</time></trkpt><trkpt lat="38.7123964727" lon="-0.5052165315"><ele>986.45</ele><time>2012-05-01T09:00:50Z</time></trkpt><trkpt lat="38.7124485243" lon="-0.5052183755"><ele>986.93</ele><time>2012-05-01T09:01:01Z</time></trkpt><trkpt lat="38.7125030067" lon="-0.5051719397"><ele>989.33</ele><time>2012-05-01T09:01:14Z</time></trkpt><trkpt lat="38.7125413120" lon="-0.5051570199"><ele>991.74</ele><time>2012-05-01T09:01:26Z</time></trkpt><trkpt lat="38.7125479337" lon="-0.5051575229"><ele>992.22</ele><time>2012-05-01T09:01:27Z</time></trkpt><trkpt lat="38.7125796173" lon="-0.5051771365"><ele>994.14</ele><time>2012-05-01T09:01:40Z</time></trkpt><trkpt lat="38.7126411404" lon="-0.5051789805"><ele>996.54</ele><time>2012-05-01T09:01:52Z</time></trkpt><trkpt lat="38.7126554735" lon="-0.5051328801"><ele>998.47</ele><time>2012-05-01T09:02:03Z</time></trkpt><trkpt lat="38.7126638554" lon="-0.5051060580"><ele>999.43</ele><time>2012-05-01T09:02:07Z</time></trkpt><trkpt lat="38.7126900069" lon="-0.5050668307"><ele>1000.87</ele><time>2012-05-01T09:02:18Z</time></trkpt><trkpt lat="38.7127054296" lon="-0.5049635656"><ele>1002.31</ele><time>2012-05-01T09:02:30Z</time></trkpt><trkpt lat="38.7127283961" lon="-0.5048371665"><ele>1003.75</ele><time>2012-05-01T09:02:45Z</time></trkpt><trkpt lat="38.7127674557" lon="-0.5047809239"><ele>1005.68</ele><time>2012-05-01T09:02:57Z</time></trkpt><trkpt lat="38.7127940264" lon="-0.5046388507"><ele>1007.60</ele><time>2012-05-01T09:03:12Z</time></trkpt><trkpt lat="38.7127940264" lon="-0.5046388507"><ele>1007.60</ele><time>2012-05-01T09:03:16Z</time></trkpt><trkpt lat="38.7127897516" lon="-0.5045669340"><ele>1008.08</ele><time>2012-05-01T09:03:21Z</time></trkpt><trkpt lat="38.7127923500" lon="-0.5044683628"><ele>1009.52</ele><time>2012-05-01T09:03:27Z</time></trkpt><trkpt lat="38.7128387857" lon="-0.5041999742"><ele>1010.48</ele><time>2012-05-01T09:03:42Z</time></trkpt><trkpt lat="38.7128594890" lon="-0.5041214358"><ele>1010.48</ele><time>2012-05-01T09:03:46Z</time></trkpt><trkpt lat="38.7129297294" lon="-0.5039925221"><ele>1012.41</ele><time>2012-05-01T09:03:54Z</time></trkpt><trkpt lat="38.7129754946" lon="-0.5039354414"><ele>1013.37</ele><time>2012-05-01T09:03:59Z</time></trkpt><trkpt lat="38.7130583916" lon="-0.5037367065"><ele>1012.89</ele><time>2012-05-01T09:04:07Z</time></trkpt><trkpt lat="38.7132677715" lon="-0.5036305916"><ele>1010.96</ele><time>2012-05-01T09:04:13Z</time></trkpt><trkpt lat="38.7134556938" lon="-0.5035342835"><ele>1008.08</ele><time>2012-05-01T09:04:22Z</time></trkpt><trkpt lat="38.7135134451" lon="-0.5034562480"><ele>1006.64</ele><time>2012-05-01T09:04:25Z</time></trkpt><trkpt lat="38.7136038858" lon="-0.5033249874"><ele>1003.75</ele><time>2012-05-01T09:04:32Z</time></trkpt><trkpt lat="38.7137165386" lon="-0.5031319521"><ele>1005.20</ele><time>2012-05-01T09:04:44Z</time></trkpt><trkpt lat="38.7137438636" lon="-0.5030990951"><ele>1006.64</ele><time>2012-05-01T09:04:46Z</time></trkpt><trkpt lat="38.7138647307" lon="-0.5029450357"><ele>1011.44</ele><time>2012-05-01T09:04:57Z</time></trkpt><trkpt lat="38.7138883676" lon="-0.5029120110"><ele>1012.41</ele><time>2012-05-01T09:05:00Z</time></trkpt><trkpt lat="38.7139166147" lon="-0.5028664973"><ele>1012.89</ele><time>2012-05-01T09:05:03Z</time></trkpt><trkpt lat="38.7139582727" lon="-0.5028308742"><ele>1013.85</ele><time>2012-05-01T09:05:15Z</time></trkpt><trkpt lat="38.7139829993" lon="-0.5027955025"><ele>1014.33</ele><time>2012-05-01T09:05:25Z</time></trkpt><trkpt lat="38.7140058819" lon="-0.5027912278"><ele>1013.85</ele><time>2012-05-01T09:05:28Z</time></trkpt><trkpt lat="38.7141661439" lon="-0.5027714465"><ele>1012.89</ele><time>2012-05-01T09:05:33Z</time></trkpt><trkpt lat="38.7143360451" lon="-0.5027505755"><ele>1010.96</ele><time>2012-05-01T09:05:39Z</time></trkpt><trkpt lat="38.7144364603" lon="-0.5026674271"><ele>1010.48</ele><time>2012-05-01T09:05:43Z</time></trkpt><trkpt lat="38.7147040945" lon="-0.5023709591"><ele>1009.52</ele><time>2012-05-01T09:05:55Z</time></trkpt><trkpt lat="38.7147924397" lon="-0.5023078434"><ele>1010.48</ele><time>2012-05-01T09:06:00Z</time></trkpt><trkpt lat="38.7148953695" lon="-0.5021612439"><ele>1011.44</ele><time>2012-05-01T09:06:10Z</time></trkpt><trkpt lat="38.7149047572" lon="-0.5021719728"><ele>1011.44</ele><time>2012-05-01T09:06:21Z</time></trkpt><trkpt lat="38.7149050925" lon="-0.5021725595"><ele>1011.44</ele><time>2012-05-01T09:06:57Z</time></trkpt><trkpt lat="38.7149029132" lon="-0.5021726433"><ele>1011.44</ele><time>2012-05-01T09:07:36Z</time></trkpt><trkpt lat="38.7149106245" lon="-0.5021381937"><ele>1010.96</ele><time>2012-05-01T09:07:43Z</time></trkpt><trkpt lat="38.7148896698" lon="-0.5020392034"><ele>1011.44</ele><time>2012-05-01T09:07:54Z</time></trkpt><trkpt lat="38.7148941122" lon="-0.5018966272"><ele>1012.89</ele><time>2012-05-01T09:08:06Z</time></trkpt><trkpt lat="38.7149070203" lon="-0.5018576514"><ele>1013.85</ele><time>2012-05-01T09:08:09Z</time></trkpt><trkpt lat="38.7149252929" lon="-0.5016661249"><ele>1015.77</ele><time>2012-05-01T09:08:25Z</time></trkpt><trkpt lat="38.7149190903" lon="-0.5015666317"><ele>1016.25</ele><time>2012-05-01T09:08:33Z</time></trkpt><trkpt lat="38.7149013206" lon="-0.5014272407"><ele>1017.69</ele><time>2012-05-01T09:08:45Z</time></trkpt><trkpt lat="38.7148910947" lon="-0.5012743548"><ele>1021.06</ele><time>2012-05-01T09:08:58Z</time></trkpt><trkpt lat="38.7148852274" lon="-0.5012215488"><ele>1022.50</ele><time>2012-05-01T09:09:03Z</time></trkpt><trkpt lat="38.7148961239" lon="-0.5011145119"><ele>1024.42</ele><time>2012-05-01T09:09:12Z</time></trkpt><trkpt lat="38.7148957886" lon="-0.5010484625"><ele>1024.90</ele><time>2012-05-01T09:09:18Z</time></trkpt><trkpt lat="38.7148895860" lon="-0.5010114983"><ele>1025.38</ele><time>2012-05-01T09:09:21Z</time></trkpt><trkpt lat="38.7148705591" lon="-0.5008983426"><ele>1027.79</ele><time>2012-05-01T09:09:36Z</time></trkpt><trkpt lat="38.7148238719" lon="-0.5008495599"><ele>1029.23</ele><time>2012-05-01T09:09:48Z</time></trkpt><trkpt lat="38.7148157414" lon="-0.5008043814"><ele>1031.15</ele><time>2012-05-01T09:09:58Z</time></trkpt><trkpt lat="38.7148070242" lon="-0.5007721111"><ele>1031.63</ele><time>2012-05-01T09:10:01Z</time></trkpt><trkpt lat="38.7147941161" lon="-0.5006987695"><ele>1031.63</ele><time>2012-05-01T09:10:07Z</time></trkpt><trkpt lat="38.7147838064" lon="-0.5006649904"><ele>1031.63</ele><time>2012-05-01T09:10:09Z</time></trkpt><trkpt lat="38.7147722393" lon="-0.5005825963"><ele>1032.11</ele><time>2012-05-01T09:10:15Z</time></trkpt><trkpt lat="38.7148032524" lon="-0.5004755594"><ele>1033.55</ele><time>2012-05-01T09:10:28Z</time></trkpt><trkpt lat="38.7147858180" lon="-0.5004062410"><ele>1036.44</ele><time>2012-05-01T09:10:37Z</time></trkpt><trkpt lat="38.7147647794" lon="-0.5003406946"><ele>1036.92</ele><time>2012-05-01T09:10:43Z</time></trkpt><trkpt lat="38.7147376221" lon="-0.5002295505"><ele>1037.40</ele><time>2012-05-01T09:10:52Z</time></trkpt><trkpt lat="38.7147771008" lon="-0.5001624115"><ele>1040.28</ele><time>2012-05-01T09:11:05Z</time></trkpt><trkpt lat="38.7147640251" lon="-0.5000471603"><ele>1043.65</ele><time>2012-05-01T09:11:16Z</time></trkpt><trkpt lat="38.7147751730" lon="-0.4999615811"><ele>1047.49</ele><time>2012-05-01T09:11:27Z</time></trkpt><trkpt lat="38.7147735804" lon="-0.4997793585"><ele>1049.42</ele><time>2012-05-01T09:11:42Z</time></trkpt><trkpt lat="38.7147739157" lon="-0.4997022450"><ele>1050.86</ele><time>2012-05-01T09:11:51Z</time></trkpt><trkpt lat="38.7147967983" lon="-0.4996460024"><ele>1051.82</ele><time>2012-05-01T09:11:58Z</time></trkpt><trkpt lat="38.7148263026" lon="-0.4995198548"><ele>1052.30</ele><time>2012-05-01T09:12:11Z</time></trkpt><trkpt lat="38.7148434017" lon="-0.4994942062"><ele>1053.26</ele><time>2012-05-01T09:12:24Z</time></trkpt><trkpt lat="38.7148446590" lon="-0.4994984809"><ele>1053.26</ele><time>2012-05-01T09:13:07Z</time></trkpt><trkpt lat="38.7148458324" lon="-0.4994932003"><ele>1053.26</ele><time>2012-05-01T09:13:49Z</time></trkpt><trkpt lat="38.7148458324" lon="-0.4994932003"><ele>1053.26</ele><time>2012-05-01T09:14:09Z</time></trkpt><trkpt lat="38.7148418091" lon="-0.4994885903"><ele>1053.74</ele><time>2012-05-01T09:14:33Z</time></trkpt><trkpt lat="38.7148418091" lon="-0.4994885903"><ele>1053.74</ele><time>2012-05-01T09:14:45Z</time></trkpt><trkpt lat="38.7148277275" lon="-0.4994653724"><ele>1053.74</ele><time>2012-05-01T09:14:58Z</time></trkpt><trkpt lat="38.7148277275" lon="-0.4994653724"><ele>1053.74</ele><time>2012-05-01T09:15:28Z</time></trkpt><trkpt lat="38.7148259673" lon="-0.4994650371"><ele>1053.74</ele><time>2012-05-01T09:15:49Z</time></trkpt><trkpt lat="38.7148273923" lon="-0.4994646180"><ele>1053.74</ele><time>2012-05-01T09:16:10Z</time></trkpt><trkpt lat="38.7148294877" lon="-0.4994629417"><ele>1053.74</ele><time>2012-05-01T09:16:32Z</time></trkpt><trkpt lat="38.7148249615" lon="-0.4994657915"><ele>1053.74</ele><time>2012-05-01T09:16:58Z</time></trkpt><trkpt lat="38.7148263026" lon="-0.4994624387"><ele>1053.74</ele><time>2012-05-01T09:17:22Z</time></trkpt><trkpt lat="38.7148240395" lon="-0.4994657915"><ele>1053.74</ele><time>2012-05-01T09:17:35Z</time></trkpt><trkpt lat="38.7148201838" lon="-0.4994600080"><ele>1053.74</ele><time>2012-05-01T09:17:59Z</time></trkpt><trkpt lat="38.7147987261" lon="-0.4994214512"><ele>1053.26</ele><time>2012-05-01T09:18:07Z</time></trkpt><trkpt lat="38.7147035915" lon="-0.4992468562"><ele>1051.34</ele><time>2012-05-01T09:18:16Z</time></trkpt><trkpt lat="38.7146729976" lon="-0.4991050344"><ele>1050.38</ele><time>2012-05-01T09:18:20Z</time></trkpt><trkpt lat="38.7145810481" lon="-0.4987670761"><ele>1047.49</ele><time>2012-05-01T09:18:27Z</time></trkpt><trkpt lat="38.7145683914" lon="-0.4987047985"><ele>1046.53</ele><time>2012-05-01T09:18:34Z</time></trkpt><trkpt lat="38.7145683914" lon="-0.4987047985"><ele>1046.53</ele><time>2012-05-01T09:18:35Z</time></trkpt><trkpt lat="38.7144657969" lon="-0.4984299559"><ele>1044.13</ele><time>2012-05-01T09:18:45Z</time></trkpt><trkpt lat="38.7144305930" lon="-0.4982664250"><ele>1042.69</ele><time>2012-05-01T09:18:48Z</time></trkpt><trkpt lat="38.7143095583" lon="-0.4979116190"><ele>1038.36</ele><time>2012-05-01T09:18:56Z</time></trkpt><trkpt lat="38.7143077143" lon="-0.4978687037"><ele>1037.88</ele><time>2012-05-01T09:18:58Z</time></trkpt><trkpt lat="38.7142919563" lon="-0.4976887442"><ele>1037.88</ele><time>2012-05-01T09:19:05Z</time></trkpt><trkpt lat="38.7142550759" lon="-0.4975541309"><ele>1036.44</ele><time>2012-05-01T09:19:08Z</time></trkpt><trkpt lat="38.7141399086" lon="-0.4973833077"><ele>1034.52</ele><time>2012-05-01T09:19:12Z</time></trkpt><trkpt lat="38.7140710093" lon="-0.4973126482"><ele>1033.55</ele><time>2012-05-01T09:19:14Z</time></trkpt><trkpt lat="38.7139161117" lon="-0.4971117340"><ele>1031.15</ele><time>2012-05-01T09:19:19Z</time></trkpt><trkpt lat="38.7137555145" lon="-0.4967384879"><ele>1026.83</ele><time>2012-05-01T09:19:27Z</time></trkpt><trkpt lat="38.7137136050" lon="-0.4966027010"><ele>1025.38</ele><time>2012-05-01T09:19:29Z</time></trkpt><trkpt lat="38.7137094140" lon="-0.4964778107"><ele>1024.42</ele><time>2012-05-01T09:19:31Z</time></trkpt><trkpt lat="38.7134546041" lon="-0.4960074183"><ele>1018.17</ele><time>2012-05-01T09:19:43Z</time></trkpt><trkpt lat="38.7133234274" lon="-0.4957106151"><ele>1015.29</ele><time>2012-05-01T09:19:50Z</time></trkpt><trkpt lat="38.7131774146" lon="-0.4952146579"><ele>1012.89</ele><time>2012-05-01T09:20:02Z</time></trkpt><trkpt lat="38.7131478265" lon="-0.4951484408"><ele>1011.93</ele><time>2012-05-01T09:20:04Z</time></trkpt><trkpt lat="38.7129705492" lon="-0.4950739257"><ele>1009.52</ele><time>2012-05-01T09:20:08Z</time></trkpt><trkpt lat="38.7128307391" lon="-0.4950175993"><ele>1005.68</ele><time>2012-05-01T09:20:11Z</time></trkpt><trkpt lat="38.7126931921" lon="-0.4948502965"><ele>1000.39</ele><time>2012-05-01T09:20:15Z</time></trkpt><trkpt lat="38.7125767674" lon="-0.4947342910"><ele>997.02</ele><time>2012-05-01T09:20:18Z</time></trkpt><trkpt lat="38.7123897672" lon="-0.4946854245"><ele>992.22</ele><time>2012-05-01T09:20:22Z</time></trkpt><trkpt lat="38.7121542357" lon="-0.4946072213"><ele>985.97</ele><time>2012-05-01T09:20:27Z</time></trkpt><trkpt lat="38.7120653875" lon="-0.4945374001"><ele>982.12</ele><time>2012-05-01T09:20:29Z</time></trkpt><trkpt lat="38.7117892038" lon="-0.4942711070"><ele>972.03</ele><time>2012-05-01T09:20:36Z</time></trkpt><trkpt lat="38.7116685882" lon="-0.4941224959"><ele>967.22</ele><time>2012-05-01T09:20:42Z</time></trkpt><trkpt lat="38.7114629801" lon="-0.4938163888"><ele>960.98</ele><time>2012-05-01T09:20:50Z</time></trkpt><trkpt lat="38.7112929951" lon="-0.4935816955"><ele>955.21</ele><time>2012-05-01T09:20:58Z</time></trkpt><trkpt lat="38.7110545300" lon="-0.4934502672"><ele>947.52</ele><time>2012-05-01T09:21:07Z</time></trkpt><trkpt lat="38.7109977845" lon="-0.4933600780"><ele>944.15</ele><time>2012-05-01T09:21:12Z</time></trkpt><trkpt lat="38.7109914981" lon="-0.4932966270"><ele>943.19</ele><time>2012-05-01T09:21:15Z</time></trkpt><trkpt lat="38.7108156458" lon="-0.4932122212"><ele>938.38</ele><time>2012-05-01T09:21:23Z</time></trkpt><trkpt lat="38.7105722353" lon="-0.4930170905"><ele>935.50</ele><time>2012-05-01T09:21:30Z</time></trkpt><trkpt lat="38.7105136458" lon="-0.4929769412"><ele>935.50</ele><time>2012-05-01T09:21:32Z</time></trkpt><trkpt lat="38.7104514521" lon="-0.4929211177"><ele>935.02</ele><time>2012-05-01T09:21:34Z</time></trkpt><trkpt lat="38.7103077024" lon="-0.4927677289"><ele>933.58</ele><time>2012-05-01T09:21:40Z</time></trkpt><trkpt lat="38.7102844007" lon="-0.4926499631"><ele>935.50</ele><time>2012-05-01T09:21:53Z</time></trkpt><trkpt lat="38.7102787010" lon="-0.4926428385"><ele>935.50</ele><time>2012-05-01T09:21:54Z</time></trkpt><trkpt lat="38.7102460954" lon="-0.4926305171"><ele>935.98</ele><time>2012-05-01T09:21:57Z</time></trkpt><trkpt lat="38.7101569120" lon="-0.4925974086"><ele>936.94</ele><time>2012-05-01T09:22:06Z</time></trkpt><trkpt lat="38.7100616936" lon="-0.4925907031"><ele>940.79</ele><time>2012-05-01T09:22:17Z</time></trkpt><trkpt lat="38.7100140005" lon="-0.4925997555"><ele>940.79</ele><time>2012-05-01T09:22:21Z</time></trkpt><trkpt lat="38.7097487133" lon="-0.4926064610"><ele>939.35</ele><time>2012-05-01T09:22:31Z</time></trkpt><trkpt lat="38.7097111624" lon="-0.4926330317"><ele>939.35</ele><time>2012-05-01T09:22:32Z</time></trkpt><trkpt lat="38.7096099090" lon="-0.4926883522"><ele>939.35</ele><time>2012-05-01T09:22:34Z</time></trkpt><trkpt lat="38.7094205618" lon="-0.4926530644"><ele>937.42</ele><time>2012-05-01T09:22:40Z</time></trkpt><trkpt lat="38.7093473878" lon="-0.4925565049"><ele>936.46</ele><time>2012-05-01T09:22:43Z</time></trkpt><trkpt lat="38.7092587072" lon="-0.4924504738"><ele>935.50</ele><time>2012-05-01T09:22:46Z</time></trkpt><trkpt lat="38.7090877164" lon="-0.4923699237"><ele>933.10</ele><time>2012-05-01T09:22:51Z</time></trkpt><trkpt lat="38.7088787556" lon="-0.4922612105"><ele>927.81</ele><time>2012-05-01T09:22:56Z</time></trkpt><trkpt lat="38.7085413001" lon="-0.4921766371"><ele>917.24</ele><time>2012-05-01T09:23:04Z</time></trkpt><trkpt lat="38.7083220296" lon="-0.4920323845"><ele>907.14</ele><time>2012-05-01T09:23:10Z</time></trkpt><trkpt lat="38.7082599197" lon="-0.4919641558"><ele>904.74</ele><time>2012-05-01T09:23:12Z</time></trkpt><trkpt lat="38.7080484442" lon="-0.4918165505"><ele>897.05</ele><time>2012-05-01T09:23:21Z</time></trkpt><trkpt lat="38.7080188561" lon="-0.4917876329"><ele>899.45</ele><time>2012-05-01T09:23:28Z</time></trkpt><trkpt lat="38.7079984043" lon="-0.4917562008"><ele>900.41</ele><time>2012-05-01T09:23:31Z</time></trkpt><trkpt lat="38.7079353724" lon="-0.4917351622"><ele>902.33</ele><time>2012-05-01T09:23:36Z</time></trkpt><trkpt lat="38.7078420818" lon="-0.4917112738"><ele>903.78</ele><time>2012-05-01T09:23:47Z</time></trkpt><trkpt lat="38.7077466119" lon="-0.4916609824"><ele>904.26</ele><time>2012-05-01T09:23:57Z</time></trkpt><trkpt lat="38.7077318598" lon="-0.4916510079"><ele>904.74</ele><time>2012-05-01T09:23:59Z</time></trkpt><trkpt lat="38.7076580152" lon="-0.4916377645"><ele>904.74</ele><time>2012-05-01T09:24:06Z</time></trkpt><trkpt lat="38.7076151837" lon="-0.4916490801"><ele>904.74</ele><time>2012-05-01T09:24:10Z</time></trkpt><trkpt lat="38.7074892037" lon="-0.4916303046"><ele>906.66</ele><time>2012-05-01T09:24:22Z</time></trkpt><trkpt lat="38.7072732858" lon="-0.4916087631"><ele>906.66</ele><time>2012-05-01T09:24:34Z</time></trkpt><trkpt lat="38.7070902251" lon="-0.4915256985"><ele>903.78</ele><time>2012-05-01T09:24:38Z</time></trkpt><trkpt lat="38.7069251016" lon="-0.4914310668"><ele>900.89</ele><time>2012-05-01T09:24:41Z</time></trkpt><trkpt lat="38.7067197450" lon="-0.4912662786"><ele>897.05</ele><time>2012-05-01T09:24:45Z</time></trkpt><trkpt lat="38.7063885760" lon="-0.4910359439"><ele>891.76</ele><time>2012-05-01T09:24:55Z</time></trkpt><trkpt lat="38.7063314114" lon="-0.4909980576"><ele>890.80</ele><time>2012-05-01T09:24:57Z</time></trkpt><trkpt lat="38.7061133143" lon="-0.4908872489"><ele>891.28</ele><time>2012-05-01T09:25:07Z</time></trkpt><trkpt lat="38.7060422357" lon="-0.4908637796"><ele>892.24</ele><time>2012-05-01T09:25:12Z</time></trkpt><trkpt lat="38.7059113942" lon="-0.4908400588"><ele>895.12</ele><time>2012-05-01T09:25:21Z</time></trkpt><trkpt lat="38.7057824805" lon="-0.4909343552"><ele>898.01</ele><time>2012-05-01T09:25:30Z</time></trkpt><trkpt lat="38.7057673931" lon="-0.4909475148"><ele>898.01</ele><time>2012-05-01T09:25:31Z</time></trkpt><trkpt lat="38.7057350390" lon="-0.4909702297"><ele>898.01</ele><time>2012-05-01T09:25:33Z</time></trkpt><trkpt lat="38.7055866793" lon="-0.4909942020"><ele>899.93</ele><time>2012-05-01T09:25:41Z</time></trkpt><trkpt lat="38.7055271678" lon="-0.4910272267"><ele>902.33</ele><time>2012-05-01T09:25:45Z</time></trkpt><trkpt lat="38.7053609546" lon="-0.4910098761"><ele>906.66</ele><time>2012-05-01T09:25:54Z</time></trkpt><trkpt lat="38.7052398361" lon="-0.4910295736"><ele>908.58</ele><time>2012-05-01T09:26:04Z</time></trkpt><trkpt lat="38.7051441986" lon="-0.4910335131"><ele>910.03</ele><time>2012-05-01T09:26:14Z</time></trkpt><trkpt lat="38.7050229125" lon="-0.4910582397"><ele>912.91</ele><time>2012-05-01T09:26:27Z</time></trkpt><trkpt lat="38.7050105911" lon="-0.4910104629"><ele>913.87</ele><time>2012-05-01T09:26:39Z</time></trkpt><trkpt lat="38.7050115131" lon="-0.4910164140"><ele>913.87</ele><time>2012-05-01T09:26:50Z</time></trkpt><trkpt lat="38.7050120160" lon="-0.4910172522"><ele>913.87</ele><time>2012-05-01T09:27:25Z</time></trkpt><trkpt lat="38.7050128542" lon="-0.4910163302"><ele>913.87</ele><time>2012-05-01T09:27:48Z</time></trkpt><trkpt lat="38.7050066516" lon="-0.4910118878"><ele>913.87</ele><time>2012-05-01T09:28:11Z</time></trkpt><trkpt lat="38.7050066516" lon="-0.4910118878"><ele>913.87</ele><time>2012-05-01T09:28:16Z</time></trkpt><trkpt lat="38.7048879638" lon="-0.4909428209"><ele>911.95</ele><time>2012-05-01T09:28:21Z</time></trkpt><trkpt lat="38.7045991234" lon="-0.4909358639"><ele>907.14</ele><time>2012-05-01T09:28:29Z</time></trkpt><trkpt lat="38.7044563796" lon="-0.4909333494"><ele>904.26</ele><time>2012-05-01T09:28:32Z</time></trkpt><trkpt lat="38.7043311540" lon="-0.4908263963"><ele>897.53</ele><time>2012-05-01T09:28:39Z</time></trkpt><trkpt lat="38.7043287233" lon="-0.4907693155"><ele>893.68</ele><time>2012-05-01T09:28:44Z</time></trkpt><trkpt lat="38.7042376958" lon="-0.4907999095"><ele>891.28</ele><time>2012-05-01T09:28:49Z</time></trkpt><trkpt lat="38.7042082753" lon="-0.4908588342"><ele>889.84</ele><time>2012-05-01T09:28:52Z</time></trkpt><trkpt lat="38.7040760927" lon="-0.4909595847"><ele>885.99</ele><time>2012-05-01T09:28:59Z</time></trkpt><trkpt lat="38.7040676270" lon="-0.4910025001"><ele>884.55</ele><time>2012-05-01T09:29:01Z</time></trkpt><trkpt lat="38.7040662859" lon="-0.4911097884"><ele>882.15</ele><time>2012-05-01T09:29:05Z</time></trkpt><trkpt lat="38.7039712351" lon="-0.4912128858"><ele>878.78</ele><time>2012-05-01T09:29:12Z</time></trkpt><trkpt lat="38.7037961371" lon="-0.4915003013"><ele>871.57</ele><time>2012-05-01T09:29:22Z</time></trkpt><trkpt lat="38.7037407327" lon="-0.4915723857"><ele>868.69</ele><time>2012-05-01T09:29:31Z</time></trkpt><trkpt lat="38.7037322670" lon="-0.4915804323"><ele>868.21</ele><time>2012-05-01T09:29:40Z</time></trkpt><trkpt lat="38.7037182692" lon="-0.4917881358"><ele>866.29</ele><time>2012-05-01T09:29:46Z</time></trkpt><trkpt lat="38.7036430836" lon="-0.4916933365"><ele>862.92</ele><time>2012-05-01T09:29:55Z</time></trkpt><trkpt lat="38.7036259007" lon="-0.4916276224"><ele>861.48</ele><time>2012-05-01T09:29:57Z</time></trkpt><trkpt lat="38.7035767827" lon="-0.4916872177"><ele>857.63</ele><time>2012-05-01T09:30:04Z</time></trkpt><trkpt lat="38.7035754416" lon="-0.4916945100"><ele>857.15</ele><time>2012-05-01T09:30:05Z</time></trkpt><trkpt lat="38.7035736814" lon="-0.4917325638"><ele>855.71</ele><time>2012-05-01T09:30:08Z</time></trkpt><trkpt lat="38.7035160139" lon="-0.4918163829"><ele>851.38</ele><time>2012-05-01T09:30:13Z</time></trkpt><trkpt lat="38.7035791297" lon="-0.4920732882"><ele>846.10</ele><time>2012-05-01T09:30:20Z</time></trkpt><trkpt lat="38.7035634555" lon="-0.4920970090"><ele>844.66</ele><time>2012-05-01T09:30:22Z</time></trkpt><trkpt lat="38.7033637986" lon="-0.4918857850"><ele>841.77</ele><time>2012-05-01T09:30:32Z</time></trkpt><trkpt lat="38.7031853478" lon="-0.4916542768"><ele>835.04</ele><time>2012-05-01T09:30:41Z</time></trkpt><trkpt lat="38.7031226512" lon="-0.4917320609"><ele>831.68</ele><time>2012-05-01T09:30:47Z</time></trkpt><trkpt lat="38.7031063903" lon="-0.4921494797"><ele>825.43</ele><time>2012-05-01T09:30:56Z</time></trkpt><trkpt lat="38.7030226551" lon="-0.4921442829"><ele>820.62</ele><time>2012-05-01T09:31:02Z</time></trkpt><trkpt lat="38.7029923126" lon="-0.4921254236"><ele>818.70</ele><time>2012-05-01T09:31:04Z</time></trkpt><trkpt lat="38.7030679174" lon="-0.4925150145"><ele>814.37</ele><time>2012-05-01T09:31:13Z</time></trkpt><trkpt lat="38.7031730264" lon="-0.4928554036"><ele>811.01</ele><time>2012-05-01T09:31:20Z</time></trkpt><trkpt lat="38.7032004353" lon="-0.4930202756"><ele>808.13</ele><time>2012-05-01T09:31:26Z</time></trkpt><trkpt lat="38.7032164447" lon="-0.4931399692"><ele>807.64</ele><time>2012-05-01T09:31:29Z</time></trkpt><trkpt lat="38.7031436898" lon="-0.4934357665"><ele>803.32</ele><time>2012-05-01T09:31:38Z</time></trkpt><trkpt lat="38.7031495571" lon="-0.4935518559"><ele>800.92</ele><time>2012-05-01T09:31:45Z</time></trkpt><trkpt lat="38.7031079829" lon="-0.4937381018"><ele>797.07</ele><time>2012-05-01T09:31:51Z</time></trkpt><trkpt lat="38.7031287700" lon="-0.4939999525"><ele>792.74</ele><time>2012-05-01T09:32:02Z</time></trkpt><trkpt lat="38.7030065618" lon="-0.4939867929"><ele>790.34</ele><time>2012-05-01T09:32:07Z</time></trkpt><trkpt lat="38.7029388361" lon="-0.4939218331"><ele>788.90</ele><time>2012-05-01T09:32:09Z</time></trkpt><trkpt lat="38.7028595433" lon="-0.4937702883"><ele>785.05</ele><time>2012-05-01T09:32:19Z</time></trkpt><trkpt lat="38.7028555200" lon="-0.4937664326"><ele>784.57</ele><time>2012-05-01T09:32:21Z</time></trkpt><trkpt lat="38.7028691825" lon="-0.4938935861"><ele>785.05</ele><time>2012-05-01T09:32:28Z</time></trkpt><trkpt lat="38.7028888799" lon="-0.4939536005"><ele>784.57</ele><time>2012-05-01T09:32:42Z</time></trkpt><trkpt lat="38.7030459568" lon="-0.4942169599"><ele>784.09</ele><time>2012-05-01T09:32:52Z</time></trkpt><trkpt lat="38.7030949071" lon="-0.4942565225"><ele>784.57</ele><time>2012-05-01T09:32:54Z</time></trkpt><trkpt lat="38.7032616232" lon="-0.4944115877"><ele>785.53</ele><time>2012-05-01T09:33:03Z</time></trkpt><trkpt lat="38.7034778763" lon="-0.4946699180"><ele>785.05</ele><time>2012-05-01T09:33:15Z</time></trkpt><trkpt lat="38.7036515493" lon="-0.4947243165"><ele>785.05</ele><time>2012-05-01T09:33:21Z</time></trkpt><trkpt lat="38.7037870008" lon="-0.4948051181"><ele>785.05</ele><time>2012-05-01T09:33:26Z</time></trkpt><trkpt lat="38.7040479295" lon="-0.4949520528"><ele>786.02</ele><time>2012-05-01T09:33:37Z</time></trkpt><trkpt lat="38.7041317485" lon="-0.4950758535"><ele>786.50</ele><time>2012-05-01T09:33:42Z</time></trkpt><trkpt lat="38.7041737419" lon="-0.4951382149"><ele>787.94</ele><time>2012-05-01T09:33:45Z</time></trkpt><trkpt lat="38.7042221054" lon="-0.4952514544"><ele>788.42</ele><time>2012-05-01T09:33:51Z</time></trkpt><trkpt lat="38.7041066028" lon="-0.4952439945"><ele>786.02</ele><time>2012-05-01T09:33:59Z</time></trkpt><trkpt lat="38.7040506117" lon="-0.4952413123"><ele>786.50</ele><time>2012-05-01T09:34:02Z</time></trkpt><trkpt lat="38.7039721571" lon="-0.4952400550"><ele>787.46</ele><time>2012-05-01T09:34:06Z</time></trkpt><trkpt lat="38.7036531419" lon="-0.4952847306"><ele>787.46</ele><time>2012-05-01T09:34:18Z</time></trkpt><trkpt lat="38.7035041954" lon="-0.4953278974"><ele>786.98</ele><time>2012-05-01T09:34:29Z</time></trkpt><trkpt lat="38.7033736054" lon="-0.4953790270"><ele>786.02</ele><time>2012-05-01T09:34:40Z</time></trkpt><trkpt lat="38.7031362299" lon="-0.4954490159"><ele>785.05</ele><time>2012-05-01T09:34:50Z</time></trkpt><trkpt lat="38.7028513290" lon="-0.4954004847"><ele>783.13</ele><time>2012-05-01T09:35:02Z</time></trkpt><trkpt lat="38.7025929149" lon="-0.4953427333"><ele>781.69</ele><time>2012-05-01T09:35:12Z</time></trkpt><trkpt lat="38.7024432980" lon="-0.4953094572"><ele>780.73</ele><time>2012-05-01T09:35:18Z</time></trkpt><trkpt lat="38.7023640051" lon="-0.4952856526"><ele>780.73</ele><time>2012-05-01T09:35:20Z</time></trkpt><trkpt lat="38.7020721473" lon="-0.4951803759"><ele>782.65</ele><time>2012-05-01T09:35:29Z</time></trkpt><trkpt lat="38.7018840574" lon="-0.4951492790"><ele>779.29</ele><time>2012-05-01T09:35:38Z</time></trkpt><trkpt lat="38.7018652819" lon="-0.4951529671"><ele>778.32</ele><time>2012-05-01T09:35:40Z</time></trkpt><trkpt lat="38.7016482744" lon="-0.4952791985"><ele>776.88</ele><time>2012-05-01T09:35:51Z</time></trkpt><trkpt lat="38.7014492042" lon="-0.4955076892"><ele>775.92</ele><time>2012-05-01T09:35:58Z</time></trkpt><trkpt lat="38.7013514712" lon="-0.4955791030"><ele>775.92</ele><time>2012-05-01T09:36:00Z</time></trkpt><trkpt lat="38.7011769600" lon="-0.4957800172"><ele>775.92</ele><time>2012-05-01T09:36:04Z</time></trkpt><trkpt lat="38.7011009362" lon="-0.4958786722"><ele>775.92</ele><time>2012-05-01T09:36:06Z</time></trkpt><trkpt lat="38.7009198871" lon="-0.4961162154"><ele>774.96</ele><time>2012-05-01T09:36:12Z</time></trkpt><trkpt lat="38.7008861080" lon="-0.4961530957"><ele>774.48</ele><time>2012-05-01T09:36:14Z</time></trkpt><trkpt lat="38.7007929012" lon="-0.4961945862"><ele>773.04</ele><time>2012-05-01T09:36:18Z</time></trkpt><trkpt lat="38.7006512471" lon="-0.4960574582"><ele>768.23</ele><time>2012-05-01T09:36:25Z</time></trkpt><trkpt lat="38.7006293703" lon="-0.4960083403"><ele>765.83</ele><time>2012-05-01T09:36:27Z</time></trkpt><trkpt lat="38.7005795818" lon="-0.4959853739"><ele>763.42</ele><time>2012-05-01T09:36:39Z</time></trkpt><trkpt lat="38.7005795818" lon="-0.4959853739"><ele>763.42</ele><time>2012-05-01T09:37:08Z</time></trkpt><trkpt lat="38.7005767319" lon="-0.4959807638"><ele>763.42</ele><time>2012-05-01T09:37:37Z</time></trkpt><trkpt lat="38.7005727086" lon="-0.4959823564"><ele>762.94</ele><time>2012-05-01T09:38:14Z</time></trkpt><trkpt lat="38.7005727924" lon="-0.4959838651"><ele>762.46</ele><time>2012-05-01T09:38:49Z</time></trkpt><trkpt lat="38.7005769834" lon="-0.4959980305"><ele>761.98</ele><time>2012-05-01T09:39:22Z</time></trkpt><trkpt lat="38.7005753070" lon="-0.4960004613"><ele>761.98</ele><time>2012-05-01T09:39:41Z</time></trkpt><trkpt lat="38.7005704455" lon="-0.4960031435"><ele>762.46</ele><time>2012-05-01T09:40:05Z</time></trkpt><trkpt lat="38.7005704455" lon="-0.4960031435"><ele>762.46</ele><time>2012-05-01T09:40:23Z</time></trkpt><trkpt lat="38.7005731277" lon="-0.4960048199"><ele>761.98</ele><time>2012-05-01T09:40:44Z</time></trkpt><trkpt lat="38.7005731277" lon="-0.4960048199"><ele>761.98</ele><time>2012-05-01T09:41:18Z</time></trkpt><trkpt lat="38.7005742174" lon="-0.4960057419"><ele>762.46</ele><time>2012-05-01T09:41:57Z</time></trkpt><trkpt lat="38.7005790789" lon="-0.4960064963"><ele>762.46</ele><time>2012-05-01T09:42:31Z</time></trkpt><trkpt lat="38.7005784921" lon="-0.4960116092"><ele>762.46</ele><time>2012-05-01T09:43:02Z</time></trkpt><trkpt lat="38.7005825154" lon="-0.4960118607"><ele>761.98</ele><time>2012-05-01T09:43:34Z</time></trkpt><trkpt lat="38.7005821802" lon="-0.4960116092"><ele>761.98</ele><time>2012-05-01T09:44:10Z</time></trkpt><trkpt lat="38.7005821802" lon="-0.4960116092"><ele>761.98</ele><time>2012-05-01T09:44:37Z</time></trkpt><trkpt lat="38.7005810067" lon="-0.4960096814"><ele>761.98</ele><time>2012-05-01T09:45:06Z</time></trkpt><trkpt lat="38.7005853653" lon="-0.4960095976"><ele>762.46</ele><time>2012-05-01T09:45:35Z</time></trkpt><trkpt lat="38.7005815096" lon="-0.4960153811"><ele>761.98</ele><time>2012-05-01T09:46:12Z</time></trkpt><trkpt lat="38.7005805876" lon="-0.4960102681"><ele>761.98</ele><time>2012-05-01T09:46:46Z</time></trkpt><trkpt lat="38.7005805876" lon="-0.4960102681"><ele>761.98</ele><time>2012-05-01T09:47:16Z</time></trkpt><trkpt lat="38.7005776539" lon="-0.4960086755"><ele>761.98</ele><time>2012-05-01T09:47:53Z</time></trkpt><trkpt lat="38.7005782407" lon="-0.4960090946"><ele>761.50</ele><time>2012-05-01T09:48:26Z</time></trkpt><trkpt lat="38.7005799171" lon="-0.4960147943"><ele>761.50</ele><time>2012-05-01T09:49:04Z</time></trkpt><trkpt lat="38.7005789112" lon="-0.4960201588"><ele>760.06</ele><time>2012-05-01T09:49:38Z</time></trkpt><trkpt lat="38.7005850300" lon="-0.4960194882"><ele>760.06</ele><time>2012-05-01T09:50:10Z</time></trkpt><trkpt lat="38.7005825993" lon="-0.4960183986"><ele>760.06</ele><time>2012-05-01T09:50:32Z</time></trkpt><trkpt lat="38.7005825993" lon="-0.4960183986"><ele>760.06</ele><time>2012-05-01T09:50:54Z</time></trkpt><trkpt lat="38.7005800847" lon="-0.4960168898"><ele>760.06</ele><time>2012-05-01T09:51:12Z</time></trkpt><trkpt lat="38.7005800847" lon="-0.4960168898"><ele>760.06</ele><time>2012-05-01T09:51:40Z</time></trkpt><trkpt lat="38.7005882990" lon="-0.4960172251"><ele>760.54</ele><time>2012-05-01T09:52:12Z</time></trkpt><trkpt lat="38.7005774863" lon="-0.4959999584"><ele>761.50</ele><time>2012-05-01T09:52:20Z</time></trkpt><trkpt lat="38.7006615568" lon="-0.4957438912"><ele>761.98</ele><time>2012-05-01T09:52:28Z</time></trkpt><trkpt lat="38.7009262573" lon="-0.4952201061"><ele>759.58</ele><time>2012-05-01T09:52:38Z</time></trkpt><trkpt lat="38.7009913847" lon="-0.4951067828"><ele>758.14</ele><time>2012-05-01T09:52:40Z</time></trkpt><trkpt lat="38.7013050355" lon="-0.4945410881"><ele>753.33</ele><time>2012-05-01T09:52:50Z</time></trkpt><trkpt lat="38.7015227973" lon="-0.4940974340"><ele>749.49</ele><time>2012-05-01T09:53:00Z</time></trkpt><trkpt lat="38.7015107274" lon="-0.4940126929"><ele>749.00</ele><time>2012-05-01T09:53:02Z</time></trkpt><trkpt lat="38.7013801374" lon="-0.4936667718"><ele>748.52</ele><time>2012-05-01T09:53:09Z</time></trkpt><trkpt lat="38.7012809794" lon="-0.4934444837"><ele>746.60</ele><time>2012-05-01T09:53:16Z</time></trkpt><trkpt lat="38.7011745293" lon="-0.4932587408"><ele>745.16</ele><time>2012-05-01T09:53:19Z</time></trkpt><trkpt lat="38.7010101601" lon="-0.4929192737"><ele>741.31</ele><time>2012-05-01T09:53:26Z</time></trkpt><trkpt lat="38.7006872892" lon="-0.4925465304"><ele>736.51</ele><time>2012-05-01T09:53:37Z</time></trkpt><trkpt lat="38.7004724611" lon="-0.4924426787"><ele>734.10</ele><time>2012-05-01T09:53:45Z</time></trkpt><trkpt lat="38.7003223412" lon="-0.4923436046"><ele>727.86</ele><time>2012-05-01T09:53:52Z</time></trkpt><trkpt lat="38.7000844628" lon="-0.4923305288"><ele>722.57</ele><time>2012-05-01T09:54:01Z</time></trkpt><trkpt lat="38.6999554653" lon="-0.4923200514"><ele>720.65</ele><time>2012-05-01T09:54:06Z</time></trkpt><trkpt lat="38.6998513620" lon="-0.4924232326"><ele>719.68</ele><time>2012-05-01T09:54:15Z</time></trkpt><trkpt lat="38.6998517811" lon="-0.4924270045"><ele>719.68</ele><time>2012-05-01T09:54:21Z</time></trkpt><trkpt lat="38.6998407170" lon="-0.4924095701"><ele>717.76</ele><time>2012-05-01T09:54:28Z</time></trkpt><trkpt lat="38.6998407170" lon="-0.4924095701"><ele>717.76</ele><time>2012-05-01T09:54:41Z</time></trkpt><trkpt lat="38.6998357717" lon="-0.4924140126"><ele>717.28</ele><time>2012-05-01T09:54:50Z</time></trkpt><trkpt lat="38.6998218577" lon="-0.4923986737"><ele>714.88</ele><time>2012-05-01T09:55:01Z</time></trkpt><trkpt lat="38.6998218577" lon="-0.4923986737"><ele>714.88</ele><time>2012-05-01T09:55:08Z</time></trkpt><trkpt lat="38.6997895036" lon="-0.4924046248"><ele>714.40</ele><time>2012-05-01T09:55:11Z</time></trkpt><trkpt lat="38.6997431517" lon="-0.4923550878"><ele>710.55</ele><time>2012-05-01T09:55:20Z</time></trkpt><trkpt lat="38.6997325066" lon="-0.4923407547"><ele>710.55</ele><time>2012-05-01T09:55:33Z</time></trkpt><trkpt lat="38.6996620987" lon="-0.4923912976"><ele>708.63</ele><time>2012-05-01T09:55:37Z</time></trkpt><trkpt lat="38.6994761042" lon="-0.4923624638"><ele>708.63</ele><time>2012-05-01T09:55:43Z</time></trkpt><trkpt lat="38.6992720049" lon="-0.4921452887"><ele>708.15</ele><time>2012-05-01T09:55:51Z</time></trkpt><trkpt lat="38.6992568336" lon="-0.4921398405"><ele>708.15</ele><time>2012-05-01T09:55:52Z</time></trkpt><trkpt lat="38.6992071290" lon="-0.4921393376"><ele>707.67</ele><time>2012-05-01T09:55:55Z</time></trkpt><trkpt lat="38.6990430951" lon="-0.4921896290"><ele>708.63</ele><time>2012-05-01T09:56:01Z</time></trkpt><trkpt lat="38.6988832522" lon="-0.4921882879"><ele>709.59</ele><time>2012-05-01T09:56:05Z</time></trkpt><trkpt lat="38.6987825856" lon="-0.4920559376"><ele>708.63</ele><time>2012-05-01T09:56:12Z</time></trkpt><trkpt lat="38.6987428553" lon="-0.4919897206"><ele>709.11</ele><time>2012-05-01T09:56:14Z</time></trkpt><trkpt lat="38.6986043025" lon="-0.4916921631"><ele>704.30</ele><time>2012-05-01T09:56:20Z</time></trkpt><trkpt lat="38.6984692700" lon="-0.4914595652"><ele>700.46</ele><time>2012-05-01T09:56:25Z</time></trkpt><trkpt lat="38.6982163042" lon="-0.4913284723"><ele>694.21</ele><time>2012-05-01T09:56:31Z</time></trkpt><trkpt lat="38.6981336586" lon="-0.4913912527"><ele>692.29</ele><time>2012-05-01T09:56:34Z</time></trkpt><trkpt lat="38.6981303897" lon="-0.4915247764"><ele>687.96</ele><time>2012-05-01T09:56:39Z</time></trkpt><trkpt lat="38.6980682798" lon="-0.4917599726"><ele>679.79</ele><time>2012-05-01T09:56:48Z</time></trkpt><trkpt lat="38.6980805174" lon="-0.4917308874"><ele>677.39</ele><time>2012-05-01T09:57:02Z</time></trkpt><trkpt lat="38.6980797630" lon="-0.4917402752"><ele>677.39</ele><time>2012-05-01T09:57:17Z</time></trkpt><trkpt lat="38.6980799306" lon="-0.4917297978"><ele>677.39</ele><time>2012-05-01T09:57:28Z</time></trkpt><trkpt lat="38.6980646756" lon="-0.4916898161"><ele>677.87</ele><time>2012-05-01T09:57:33Z</time></trkpt><trkpt lat="38.6980575509" lon="-0.4917109385"><ele>677.39</ele><time>2012-05-01T09:57:44Z</time></trkpt><trkpt lat="38.6980607361" lon="-0.4917158838"><ele>677.39</ele><time>2012-05-01T09:58:05Z</time></trkpt><trkpt lat="38.6980607361" lon="-0.4917158838"><ele>677.39</ele><time>2012-05-01T09:58:25Z</time></trkpt><trkpt lat="38.6980581377" lon="-0.4917199910"><ele>676.91</ele><time>2012-05-01T09:58:35Z</time></trkpt><trkpt lat="38.6980523542" lon="-0.4917292111"><ele>674.98</ele><time>2012-05-01T09:58:41Z</time></trkpt><trkpt lat="38.6978563853" lon="-0.4918708652"><ele>666.33</ele><time>2012-05-01T09:58:51Z</time></trkpt><trkpt lat="38.6978181638" lon="-0.4918985255"><ele>664.89</ele><time>2012-05-01T09:58:53Z</time></trkpt><trkpt lat="38.6976464186" lon="-0.4918919876"><ele>658.64</ele><time>2012-05-01T09:59:00Z</time></trkpt><trkpt lat="38.6975867394" lon="-0.4918273631"><ele>654.80</ele><time>2012-05-01T09:59:05Z</time></trkpt><trkpt lat="38.6975118890" lon="-0.4918017983"><ele>653.83</ele><time>2012-05-01T09:59:12Z</time></trkpt><trkpt lat="38.6975145712" lon="-0.4918033071"><ele>655.76</ele><time>2012-05-01T09:59:25Z</time></trkpt><trkpt lat="38.6975145712" lon="-0.4918033071"><ele>655.76</ele><time>2012-05-01T09:59:48Z</time></trkpt><trkpt lat="38.6975145712" lon="-0.4918033071"><ele>655.76</ele><time>2012-05-01T09:59:52Z</time></trkpt><trkpt lat="38.6975515354" lon="-0.4916840326"><ele>655.28</ele><time>2012-05-01T09:59:56Z</time></trkpt><trkpt lat="38.6975321732" lon="-0.4914807715"><ele>654.80</ele><time>2012-05-01T10:00:06Z</time></trkpt><trkpt lat="38.6975190137" lon="-0.4914517701"><ele>654.31</ele><time>2012-05-01T10:00:09Z</time></trkpt><trkpt lat="38.6975611746" lon="-0.4913244490"><ele>651.43</ele><time>2012-05-01T10:00:15Z</time></trkpt><trkpt lat="38.6976001505" lon="-0.4910000693"><ele>647.10</ele><time>2012-05-01T10:00:24Z</time></trkpt><trkpt lat="38.6976045929" lon="-0.4909048509"><ele>645.18</ele><time>2012-05-01T10:00:27Z</time></trkpt><trkpt lat="38.6975574028" lon="-0.4907980654"><ele>640.38</ele><time>2012-05-01T10:00:37Z</time></trkpt><trkpt lat="38.6975524575" lon="-0.4907963052"><ele>640.38</ele><time>2012-05-01T10:00:45Z</time></trkpt><trkpt lat="38.6975361966" lon="-0.4907960538"><ele>640.38</ele><time>2012-05-01T10:01:00Z</time></trkpt><trkpt lat="38.6975279823" lon="-0.4907975625"><ele>639.89</ele><time>2012-05-01T10:01:10Z</time></trkpt><trkpt lat="38.6974635255" lon="-0.4910054337"><ele>637.49</ele><time>2012-05-01T10:01:19Z</time></trkpt><trkpt lat="38.6974343564" lon="-0.4910369497"><ele>634.61</ele><time>2012-05-01T10:01:27Z</time></trkpt><trkpt lat="38.6974238791" lon="-0.4910199344"><ele>634.13</ele><time>2012-05-01T10:01:31Z</time></trkpt><trkpt lat="38.6973851547" lon="-0.4908755980"><ele>631.72</ele><time>2012-05-01T10:01:40Z</time></trkpt><trkpt lat="38.6973902676" lon="-0.4908710718"><ele>630.76</ele><time>2012-05-01T10:02:01Z</time></trkpt><trkpt lat="38.6973922793" lon="-0.4908633605"><ele>631.24</ele><time>2012-05-01T10:02:19Z</time></trkpt><trkpt lat="38.6973811314" lon="-0.4907936230"><ele>630.28</ele><time>2012-05-01T10:02:32Z</time></trkpt><trkpt lat="38.6973799579" lon="-0.4906407371"><ele>628.84</ele><time>2012-05-01T10:02:38Z</time></trkpt><trkpt lat="38.6974227894" lon="-0.4904189520"><ele>625.47</ele><time>2012-05-01T10:02:42Z</time></trkpt><trkpt lat="38.6973564047" lon="-0.4901664052"><ele>618.26</ele><time>2012-05-01T10:02:48Z</time></trkpt><trkpt lat="38.6973238830" lon="-0.4903500527"><ele>615.86</ele><time>2012-05-01T10:02:50Z</time></trkpt><trkpt lat="38.6972442549" lon="-0.4905302636"><ele>610.57</ele><time>2012-05-01T10:02:56Z</time></trkpt><trkpt lat="38.6970980745" lon="-0.4903577641"><ele>606.73</ele><time>2012-05-01T10:03:05Z</time></trkpt><trkpt lat="38.6970726773" lon="-0.4902834166"><ele>606.73</ele><time>2012-05-01T10:03:08Z</time></trkpt><trkpt lat="38.6970709171" lon="-0.4899739567"><ele>605.29</ele><time>2012-05-01T10:03:17Z</time></trkpt><trkpt lat="38.6970881838" lon="-0.4898851085"><ele>604.33</ele><time>2012-05-01T10:03:19Z</time></trkpt><trkpt lat="38.6970505491" lon="-0.4896491580"><ele>601.92</ele><time>2012-05-01T10:03:23Z</time></trkpt><trkpt lat="38.6969938036" lon="-0.4893940128"><ele>600.00</ele><time>2012-05-01T10:03:27Z</time></trkpt><trkpt lat="38.6970168538" lon="-0.4885896854"><ele>595.19</ele><time>2012-05-01T10:03:36Z</time></trkpt><trkpt lat="38.6970266607" lon="-0.4884890188"><ele>594.23</ele><time>2012-05-01T10:03:37Z</time></trkpt><trkpt lat="38.6971852463" lon="-0.4881636333"><ele>591.35</ele><time>2012-05-01T10:03:41Z</time></trkpt><trkpt lat="38.6973056942" lon="-0.4880289361"><ele>589.43</ele><time>2012-05-01T10:03:43Z</time></trkpt><trkpt lat="38.6972668860" lon="-0.4874305520"><ele>584.14</ele><time>2012-05-01T10:03:50Z</time></trkpt><trkpt lat="38.6971713323" lon="-0.4873608984"><ele>583.18</ele><time>2012-05-01T10:03:52Z</time></trkpt><trkpt lat="38.6968813185" lon="-0.4871422984"><ele>577.89</ele><time>2012-05-01T10:04:01Z</time></trkpt><trkpt lat="38.6968248244" lon="-0.4871310666"><ele>576.45</ele><time>2012-05-01T10:04:04Z</time></trkpt><trkpt lat="38.6967892013" lon="-0.4871097766"><ele>574.04</ele><time>2012-05-01T10:04:15Z</time></trkpt><trkpt lat="38.6967892013" lon="-0.4871097766"><ele>574.04</ele><time>2012-05-01T10:04:45Z</time></trkpt><trkpt lat="38.6967878602" lon="-0.4871086869"><ele>573.56</ele><time>2012-05-01T10:05:14Z</time></trkpt><trkpt lat="38.6967742816" lon="-0.4871024005"><ele>573.56</ele><time>2012-05-01T10:05:50Z</time></trkpt><trkpt lat="38.6967742816" lon="-0.4871024005"><ele>573.56</ele><time>2012-05-01T10:06:11Z</time></trkpt><trkpt lat="38.6967752874" lon="-0.4870994668"><ele>573.56</ele><time>2012-05-01T10:06:35Z</time></trkpt><trkpt lat="38.6967752874" lon="-0.4870994668"><ele>573.56</ele><time>2012-05-01T10:06:39Z</time></trkpt><trkpt lat="38.6967721861" lon="-0.4869823717"><ele>574.53</ele><time>2012-05-01T10:06:44Z</time></trkpt><trkpt lat="38.6968504731" lon="-0.4867491871"><ele>571.64</ele><time>2012-05-01T10:06:49Z</time></trkpt><trkpt lat="38.6969698314" lon="-0.4866018333"><ele>568.76</ele><time>2012-05-01T10:06:54Z</time></trkpt><trkpt lat="38.6971222982" lon="-0.4865608457"><ele>566.35</ele><time>2012-05-01T10:06:58Z</time></trkpt><trkpt lat="38.6975808721" lon="-0.4869436473"><ele>567.80</ele><time>2012-05-01T10:07:06Z</time></trkpt><trkpt lat="38.6977833789" lon="-0.4871806037"><ele>568.76</ele><time>2012-05-01T10:07:09Z</time></trkpt><trkpt lat="38.6980327405" lon="-0.4870621674"><ele>569.72</ele><time>2012-05-01T10:07:14Z</time></trkpt><trkpt lat="38.6981241032" lon="-0.4869055934"><ele>569.72</ele><time>2012-05-01T10:07:16Z</time></trkpt><trkpt lat="38.6982762348" lon="-0.4865601752"><ele>571.16</ele><time>2012-05-01T10:07:25Z</time></trkpt><trkpt lat="38.6983211618" lon="-0.4864374641"><ele>571.16</ele><time>2012-05-01T10:07:28Z</time></trkpt><trkpt lat="38.6983616464" lon="-0.4863787908"><ele>570.68</ele><time>2012-05-01T10:07:30Z</time></trkpt><trkpt lat="38.6985086650" lon="-0.4862422496"><ele>568.28</ele><time>2012-05-01T10:07:34Z</time></trkpt><trkpt lat="38.6985500716" lon="-0.4860435147"><ele>567.32</ele><time>2012-05-01T10:07:37Z</time></trkpt><trkpt lat="38.6984205712" lon="-0.4851612356"><ele>564.91</ele><time>2012-05-01T10:07:48Z</time></trkpt><trkpt lat="38.6983968504" lon="-0.4849334992"><ele>565.39</ele><time>2012-05-01T10:07:51Z</time></trkpt><trkpt lat="38.6983043142" lon="-0.4840957280"><ele>565.39</ele><time>2012-05-01T10:08:04Z</time></trkpt><trkpt lat="38.6982095987" lon="-0.4838962387"><ele>565.87</ele><time>2012-05-01T10:08:13Z</time></trkpt><trkpt lat="38.6982095987" lon="-0.4838962387"><ele>565.87</ele><time>2012-05-01T10:08:35Z</time></trkpt><trkpt lat="38.6982751451" lon="-0.4838099889"><ele>575.97</ele><time>2012-05-01T10:08:43Z</time></trkpt><trkpt lat="38.6984247621" lon="-0.4835315421"><ele>580.77</ele><time>2012-05-01T10:08:54Z</time></trkpt><trkpt lat="38.6984670907" lon="-0.4833579529"><ele>580.77</ele><time>2012-05-01T10:08:57Z</time></trkpt><trkpt lat="38.6983158812" lon="-0.4824382067"><ele>574.53</ele><time>2012-05-01T10:09:03Z</time></trkpt><trkpt lat="38.6981579661" lon="-0.4818846658"><ele>572.12</ele><time>2012-05-01T10:09:07Z</time></trkpt><trkpt lat="38.6980819423" lon="-0.4815669078"><ele>569.24</ele><time>2012-05-01T10:09:11Z</time></trkpt><trkpt lat="38.6981417052" lon="-0.4813290294"><ele>564.91</ele><time>2012-05-01T10:09:17Z</time></trkpt><trkpt lat="38.6984483991" lon="-0.4812303744"><ele>560.11</ele><time>2012-05-01T10:09:24Z</time></trkpt><trkpt lat="38.6985863652" lon="-0.4811725393"><ele>559.14</ele><time>2012-05-01T10:09:27Z</time></trkpt><trkpt lat="38.6991233937" lon="-0.4806038272"><ele>557.70</ele><time>2012-05-01T10:09:40Z</time></trkpt><trkpt lat="38.6992063746" lon="-0.4805130512"><ele>557.22</ele><time>2012-05-01T10:09:42Z</time></trkpt><trkpt lat="38.6992820632" lon="-0.4804125521"><ele>557.22</ele><time>2012-05-01T10:09:44Z</time></trkpt><trkpt lat="38.6995123141" lon="-0.4801620170"><ele>559.62</ele><time>2012-05-01T10:09:53Z</time></trkpt><trkpt lat="38.6995123141" lon="-0.4801620170"><ele>559.62</ele><time>2012-05-01T10:10:21Z</time></trkpt><trkpt lat="38.6995123141" lon="-0.4801620170"><ele>559.62</ele><time>2012-05-01T10:10:23Z</time></trkpt><trkpt lat="38.6996403895" lon="-0.4799303412"><ele>556.74</ele><time>2012-05-01T10:10:31Z</time></trkpt><trkpt lat="38.6997638550" lon="-0.4797664750"><ele>553.86</ele><time>2012-05-01T10:10:35Z</time></trkpt><trkpt lat="38.7002632488" lon="-0.4791567754"><ele>544.24</ele><time>2012-05-01T10:10:48Z</time></trkpt><trkpt lat="38.7004819326" lon="-0.4789108504"><ele>542.80</ele><time>2012-05-01T10:10:53Z</time></trkpt><trkpt lat="38.7010829989" lon="-0.4782008193"><ele>538.96</ele><time>2012-05-01T10:11:07Z</time></trkpt><trkpt lat="38.7016388867" lon="-0.4775618669"><ele>538.96</ele><time>2012-05-01T10:11:20Z</time></trkpt><trkpt lat="38.7019249611" lon="-0.4770834278"><ele>540.40</ele><time>2012-05-01T10:11:30Z</time></trkpt><trkpt lat="38.7017802894" lon="-0.4769153707"><ele>540.40</ele><time>2012-05-01T10:11:34Z</time></trkpt><trkpt lat="38.7015184388" lon="-0.4766624887"><ele>541.36</ele><time>2012-05-01T10:11:41Z</time></trkpt><trkpt lat="38.7014515512" lon="-0.4765930027"><ele>541.36</ele><time>2012-05-01T10:11:43Z</time></trkpt><trkpt lat="38.7013052031" lon="-0.4764676932"><ele>542.32</ele><time>2012-05-01T10:11:47Z</time></trkpt><trkpt lat="38.7008209806" lon="-0.4760169983"><ele>549.53</ele><time>2012-05-01T10:12:01Z</time></trkpt><trkpt lat="38.7007255945" lon="-0.4759203549"><ele>550.01</ele><time>2012-05-01T10:12:04Z</time></trkpt><trkpt lat="38.7002691999" lon="-0.4754637927"><ele>550.49</ele><time>2012-05-01T10:12:18Z</time></trkpt><trkpt lat="38.6996844783" lon="-0.4748972598"><ele>552.41</ele><time>2012-05-01T10:12:35Z</time></trkpt><trkpt lat="38.6992885172" lon="-0.4745064955"><ele>551.45</ele><time>2012-05-01T10:12:49Z</time></trkpt><trkpt lat="38.6992342863" lon="-0.4744204134"><ele>550.97</ele><time>2012-05-01T10:12:56Z</time></trkpt><trkpt lat="38.6991890240" lon="-0.4744080082"><ele>550.97</ele><time>2012-05-01T10:12:58Z</time></trkpt><trkpt lat="38.6991653033" lon="-0.4743888974"><ele>550.97</ele><time>2012-05-01T10:13:00Z</time></trkpt><trkpt lat="38.6988750380" lon="-0.4741208442"><ele>552.41</ele><time>2012-05-01T10:13:12Z</time></trkpt><trkpt lat="38.6985986028" lon="-0.4738018289"><ele>553.86</ele><time>2012-05-01T10:13:22Z</time></trkpt><trkpt lat="38.6984627321" lon="-0.4736021720"><ele>553.86</ele><time>2012-05-01T10:13:31Z</time></trkpt><trkpt lat="38.6984204873" lon="-0.4734849930"><ele>554.34</ele><time>2012-05-01T10:13:36Z</time></trkpt><trkpt lat="38.6984391790" lon="-0.4733131640"><ele>555.30</ele><time>2012-05-01T10:13:41Z</time></trkpt><trkpt lat="38.6984291207" lon="-0.4731843341"><ele>555.30</ele><time>2012-05-01T10:13:45Z</time></trkpt><trkpt lat="38.6982669309" lon="-0.4729917180"><ele>556.26</ele><time>2012-05-01T10:13:52Z</time></trkpt><trkpt lat="38.6982589681" lon="-0.4728339706"><ele>556.26</ele><time>2012-05-01T10:13:56Z</time></trkpt><trkpt lat="38.6982603092" lon="-0.4726475570"><ele>555.30</ele><time>2012-05-01T10:13:59Z</time></trkpt><trkpt lat="38.6983298790" lon="-0.4723245185"><ele>551.93</ele><time>2012-05-01T10:14:05Z</time></trkpt><trkpt lat="38.6982329004" lon="-0.4719117098"><ele>550.49</ele><time>2012-05-01T10:14:15Z</time></trkpt><trkpt lat="38.6981647555" lon="-0.4717923515"><ele>551.45</ele><time>2012-05-01T10:14:18Z</time></trkpt><trkpt lat="38.6979552079" lon="-0.4717369471"><ele>553.38</ele><time>2012-05-01T10:14:23Z</time></trkpt><trkpt lat="38.6978767533" lon="-0.4717327561"><ele>553.86</ele><time>2012-05-01T10:14:26Z</time></trkpt><trkpt lat="38.6978329998" lon="-0.4717195127"><ele>555.30</ele><time>2012-05-01T10:14:31Z</time></trkpt><trkpt lat="38.6978255399" lon="-0.4716936126"><ele>555.78</ele><time>2012-05-01T10:14:42Z</time></trkpt><trkpt lat="38.6978334188" lon="-0.4715886712"><ele>556.26</ele><time>2012-05-01T10:14:46Z</time></trkpt><trkpt lat="38.6980340816" lon="-0.4709235672"><ele>557.70</ele><time>2012-05-01T10:15:01Z</time></trkpt><trkpt lat="38.6983144563" lon="-0.4700376838"><ele>556.74</ele><time>2012-05-01T10:15:19Z</time></trkpt><trkpt lat="38.6984256841" lon="-0.4696804471"><ele>557.70</ele><time>2012-05-01T10:15:26Z</time></trkpt><trkpt lat="38.6985292844" lon="-0.4693839792"><ele>557.22</ele><time>2012-05-01T10:15:32Z</time></trkpt><trkpt lat="38.6986251734" lon="-0.4690859187"><ele>557.70</ele><time>2012-05-01T10:15:38Z</time></trkpt><trkpt lat="38.6986874510" lon="-0.4688991699"><ele>557.70</ele><time>2012-05-01T10:15:42Z</time></trkpt><trkpt lat="38.6984957568" lon="-0.4686628841"><ele>560.11</ele><time>2012-05-01T10:15:48Z</time></trkpt><trkpt lat="38.6981786694" lon="-0.4684513249"><ele>560.11</ele><time>2012-05-01T10:15:56Z</time></trkpt><trkpt lat="38.6980764940" lon="-0.4683058150"><ele>561.55</ele><time>2012-05-01T10:16:04Z</time></trkpt><trkpt lat="38.6980300583" lon="-0.4682651628"><ele>562.51</ele><time>2012-05-01T10:16:13Z</time></trkpt><trkpt lat="38.6980745662" lon="-0.4682631511"><ele>562.51</ele><time>2012-05-01T10:16:17Z</time></trkpt><trkpt lat="38.6981074233" lon="-0.4682900570"><ele>562.51</ele><time>2012-05-01T10:16:19Z</time></trkpt><trkpt lat="38.6981198285" lon="-0.4683219083"><ele>562.03</ele><time>2012-05-01T10:16:29Z</time></trkpt><trkpt lat="38.6981154699" lon="-0.4683230817"><ele>562.03</ele><time>2012-05-01T10:16:45Z</time></trkpt><trkpt lat="38.6981200799" lon="-0.4683261830"><ele>561.07</ele><time>2012-05-01T10:17:04Z</time></trkpt><trkpt lat="38.6981200799" lon="-0.4683261830"><ele>561.07</ele><time>2012-05-01T10:17:12Z</time></trkpt><trkpt lat="38.6978739034" lon="-0.4681815952"><ele>563.47</ele><time>2012-05-01T10:17:25Z</time></trkpt><trkpt lat="38.6978216842" lon="-0.4681661725"><ele>562.99</ele><time>2012-05-01T10:17:35Z</time></trkpt><trkpt lat="38.6978216842" lon="-0.4681661725"><ele>562.99</ele><time>2012-05-01T10:18:10Z</time></trkpt><trkpt lat="38.6978170741" lon="-0.4681695253"><ele>562.99</ele><time>2012-05-01T10:18:38Z</time></trkpt><trkpt lat="38.6978147272" lon="-0.4681717046"><ele>562.99</ele><time>2012-05-01T10:19:07Z</time></trkpt><trkpt lat="38.6978159007" lon="-0.4681715369"><ele>562.99</ele><time>2012-05-01T10:19:38Z</time></trkpt><trkpt lat="38.6978159007" lon="-0.4681715369"><ele>562.99</ele><time>2012-05-01T10:20:11Z</time></trkpt><trkpt lat="38.6978151463" lon="-0.4681683518"><ele>562.99</ele><time>2012-05-01T10:20:37Z</time></trkpt><trkpt lat="38.6978133861" lon="-0.4681677651"><ele>562.51</ele><time>2012-05-01T10:21:05Z</time></trkpt><trkpt lat="38.6978133861" lon="-0.4681677651"><ele>562.51</ele><time>2012-05-01T10:21:31Z</time></trkpt><trkpt lat="38.6978143919" lon="-0.4681680165"><ele>562.03</ele><time>2012-05-01T10:22:02Z</time></trkpt><trkpt lat="38.6978146434" lon="-0.4681654181"><ele>562.03</ele><time>2012-05-01T10:22:30Z</time></trkpt><trkpt lat="38.6978149787" lon="-0.4681647476"><ele>562.03</ele><time>2012-05-01T10:22:57Z</time></trkpt><trkpt lat="38.6978149787" lon="-0.4681647476"><ele>562.03</ele><time>2012-05-01T10:23:24Z</time></trkpt><trkpt lat="38.6978112906" lon="-0.4681634065"><ele>562.03</ele><time>2012-05-01T10:23:52Z</time></trkpt><trkpt lat="38.6978095304" lon="-0.4681668431"><ele>562.03</ele><time>2012-05-01T10:24:22Z</time></trkpt><trkpt lat="38.6978093628" lon="-0.4681683518"><ele>562.03</ele><time>2012-05-01T10:25:02Z</time></trkpt><trkpt lat="38.6978093628" lon="-0.4681683518"><ele>562.03</ele><time>2012-05-01T10:25:25Z</time></trkpt><trkpt lat="38.6978023220" lon="-0.4681849480"><ele>562.03</ele><time>2012-05-01T10:25:49Z</time></trkpt><trkpt lat="38.6978051718" lon="-0.4696296528"><ele>571.64</ele><time>2012-05-01T12:11:59Z</time></trkpt><trkpt lat="38.6979744025" lon="-0.4697745759"><ele>600.48</ele><time>2012-05-01T12:12:22Z</time></trkpt><trkpt lat="38.6978931818" lon="-0.4698774219"><ele>560.11</ele><time>2012-05-01T12:12:51Z</time></trkpt><trkpt lat="38.6979236919" lon="-0.4698765837"><ele>552.41</ele><time>2012-05-01T12:13:16Z</time></trkpt><trkpt lat="38.6978804413" lon="-0.4698461574"><ele>548.09</ele><time>2012-05-01T12:13:47Z</time></trkpt><trkpt lat="38.6978804413" lon="-0.4698461574"><ele>548.09</ele><time>2012-05-01T12:14:08Z</time></trkpt><trkpt lat="38.6978812795" lon="-0.4698498454"><ele>548.09</ele><time>2012-05-01T12:14:35Z</time></trkpt><trkpt lat="38.6978812795" lon="-0.4698498454"><ele>548.09</ele><time>2012-05-01T12:15:00Z</time></trkpt><trkpt lat="38.6978816148" lon="-0.4698544554"><ele>547.61</ele><time>2012-05-01T12:15:24Z</time></trkpt><trkpt lat="38.6978821177" lon="-0.4698533658"><ele>547.61</ele><time>2012-05-01T12:15:50Z</time></trkpt><trkpt lat="38.6978821177" lon="-0.4698533658"><ele>547.61</ele><time>2012-05-01T12:16:17Z</time></trkpt><trkpt lat="38.6978829559" lon="-0.4698510189"><ele>547.13</ele><time>2012-05-01T12:16:45Z</time></trkpt><trkpt lat="38.6978797708" lon="-0.4698506836"><ele>546.65</ele><time>2012-05-01T12:17:13Z</time></trkpt><trkpt lat="38.6978797708" lon="-0.4698506836"><ele>546.65</ele><time>2012-05-01T12:17:39Z</time></trkpt><trkpt lat="38.6978832912" lon="-0.4698520247"><ele>546.17</ele><time>2012-05-01T12:18:08Z</time></trkpt></trkseg></trk></gpx>